<?xml version="1.0" encoding="UTF-8" standalone="no" ?>
<gpx xmlns="http://www.topografix.com/GPX/1/1" xmlns:xsi="http://www.w3.org/2001/XMLSchema-instance" xsi:schemaLocation="http://www.topografix.com/GPX/1/1 http://www.topografix.com/GPX/1/1/gpx.xsd" version="1.1" creator="VisuGPX - https://www.visugpx.com">
  <metadata>
    <name>secteur Saverne - Dabo - Petite Pierre</name>
  </metadata>
  <trk>
    <name><![CDATA[secteur Saverne - Dabo - Petite Pierre_38]]></name>
    <trkseg>
      <trkpt lat="48.71077" lon="7.26585">
        <ele>448</ele>
        <time>2020-05-23T09:09:13Z</time>
      </trkpt>
      <trkpt lat="48.71077" lon="7.26585">
        <ele>448</ele>
        <time>2020-05-23T09:09:13Z</time>
      </trkpt>
      <trkpt lat="48.71077" lon="7.26585">
        <ele>448</ele>
        <time>2020-05-23T09:09:13Z</time>
      </trkpt>
      <trkpt lat="48.71077" lon="7.26585">
        <ele>448</ele>
        <time>2020-05-23T09:09:13Z</time>
      </trkpt>
      <trkpt lat="48.71077" lon="7.26585">
        <ele>448</ele>
        <time>2020-05-23T09:09:13Z</time>
      </trkpt>
      <trkpt lat="48.71077" lon="7.2658">
        <ele>448</ele>
        <time>2020-05-23T09:09:15Z</time>
      </trkpt>
      <trkpt lat="48.71079" lon="7.26576">
        <ele>448</ele>
        <time>2020-05-23T09:09:17Z</time>
      </trkpt>
      <trkpt lat="48.71083" lon="7.26575">
        <ele>448.1</ele>
        <time>2020-05-23T09:09:19Z</time>
      </trkpt>
      <trkpt lat="48.71083" lon="7.26574">
        <ele>448</ele>
        <time>2020-05-23T09:09:20Z</time>
      </trkpt>
      <trkpt lat="48.71085" lon="7.26574">
        <ele>448.1</ele>
        <time>2020-05-23T09:09:21Z</time>
      </trkpt>
      <trkpt lat="48.71089" lon="7.26571">
        <ele>448.1</ele>
        <time>2020-05-23T09:09:23Z</time>
      </trkpt>
      <trkpt lat="48.71094" lon="7.26567">
        <ele>448.2</ele>
        <time>2020-05-23T09:09:25Z</time>
      </trkpt>
      <trkpt lat="48.71097" lon="7.26565">
        <ele>448.3</ele>
        <time>2020-05-23T09:09:27Z</time>
      </trkpt>
      <trkpt lat="48.71101" lon="7.26564">
        <ele>448.3</ele>
        <time>2020-05-23T09:09:29Z</time>
      </trkpt>
      <trkpt lat="48.71104" lon="7.26563">
        <ele>448.3</ele>
        <time>2020-05-23T09:09:31Z</time>
      </trkpt>
      <trkpt lat="48.71105" lon="7.26562">
        <ele>448.4</ele>
        <time>2020-05-23T09:09:32Z</time>
      </trkpt>
      <trkpt lat="48.71107" lon="7.26562">
        <ele>448.4</ele>
        <time>2020-05-23T09:09:33Z</time>
      </trkpt>
      <trkpt lat="48.71111" lon="7.26561">
        <ele>448.5</ele>
        <time>2020-05-23T09:09:35Z</time>
      </trkpt>
      <trkpt lat="48.71115" lon="7.2656">
        <ele>448.5</ele>
        <time>2020-05-23T09:09:37Z</time>
      </trkpt>
      <trkpt lat="48.71118" lon="7.2656">
        <ele>448.6</ele>
        <time>2020-05-23T09:09:41Z</time>
      </trkpt>
      <trkpt lat="48.71119" lon="7.2656">
        <ele>448.7</ele>
        <time>2020-05-23T09:09:42Z</time>
      </trkpt>
      <trkpt lat="48.7112" lon="7.26561">
        <ele>448.7</ele>
        <time>2020-05-23T09:09:44Z</time>
      </trkpt>
      <trkpt lat="48.71121" lon="7.26563">
        <ele>448.7</ele>
        <time>2020-05-23T09:09:46Z</time>
      </trkpt>
      <trkpt lat="48.71121" lon="7.26564">
        <ele>448.7</ele>
        <time>2020-05-23T09:09:48Z</time>
      </trkpt>
      <trkpt lat="48.71122" lon="7.26564">
        <ele>448.7</ele>
        <time>2020-05-23T09:09:49Z</time>
      </trkpt>
      <trkpt lat="48.71122" lon="7.26564">
        <ele>448.7</ele>
        <time>2020-05-23T09:09:50Z</time>
      </trkpt>
      <trkpt lat="48.71122" lon="7.26564">
        <ele>448.7</ele>
        <time>2020-05-23T09:09:52Z</time>
      </trkpt>
      <trkpt lat="48.71123" lon="7.26564">
        <ele>448.6</ele>
        <time>2020-05-23T09:09:54Z</time>
      </trkpt>
      <trkpt lat="48.71124" lon="7.26565">
        <ele>448.6</ele>
        <time>2020-05-23T09:09:55Z</time>
      </trkpt>
      <trkpt lat="48.71124" lon="7.26566">
        <ele>448.7</ele>
        <time>2020-05-23T09:09:57Z</time>
      </trkpt>
      <trkpt lat="48.71125" lon="7.26566">
        <ele>448.7</ele>
        <time>2020-05-23T09:09:58Z</time>
      </trkpt>
      <trkpt lat="48.71128" lon="7.26569">
        <ele>448.8</ele>
        <time>2020-05-23T09:10:00Z</time>
      </trkpt>
      <trkpt lat="48.71131" lon="7.2657">
        <ele>449</ele>
        <time>2020-05-23T09:10:01Z</time>
      </trkpt>
      <trkpt lat="48.71132" lon="7.26568">
        <ele>448.8</ele>
        <time>2020-05-23T09:10:03Z</time>
      </trkpt>
      <trkpt lat="48.71132" lon="7.26567">
        <ele>448.8</ele>
        <time>2020-05-23T09:10:04Z</time>
      </trkpt>
      <trkpt lat="48.71135" lon="7.26563">
        <ele>448.8</ele>
        <time>2020-05-23T09:10:06Z</time>
      </trkpt>
      <trkpt lat="48.71136" lon="7.26561">
        <ele>448.9</ele>
        <time>2020-05-23T09:10:07Z</time>
      </trkpt>
      <trkpt lat="48.71142" lon="7.26558">
        <ele>449.1</ele>
        <time>2020-05-23T09:10:09Z</time>
      </trkpt>
      <trkpt lat="48.71147" lon="7.26555">
        <ele>449.2</ele>
        <time>2020-05-23T09:10:11Z</time>
      </trkpt>
      <trkpt lat="48.71149" lon="7.26554">
        <ele>449.2</ele>
        <time>2020-05-23T09:10:12Z</time>
      </trkpt>
      <trkpt lat="48.71154" lon="7.26551">
        <ele>449.3</ele>
        <time>2020-05-23T09:10:14Z</time>
      </trkpt>
      <trkpt lat="48.71158" lon="7.2655">
        <ele>449.4</ele>
        <time>2020-05-23T09:10:16Z</time>
      </trkpt>
      <trkpt lat="48.7116" lon="7.26549">
        <ele>449.6</ele>
        <time>2020-05-23T09:10:17Z</time>
      </trkpt>
      <trkpt lat="48.71167" lon="7.26547">
        <ele>450</ele>
        <time>2020-05-23T09:10:19Z</time>
      </trkpt>
      <trkpt lat="48.71169" lon="7.26546">
        <ele>450</ele>
        <time>2020-05-23T09:10:20Z</time>
      </trkpt>
      <trkpt lat="48.71173" lon="7.26544">
        <ele>450.2</ele>
        <time>2020-05-23T09:10:22Z</time>
      </trkpt>
      <trkpt lat="48.71175" lon="7.26543">
        <ele>450.2</ele>
        <time>2020-05-23T09:10:23Z</time>
      </trkpt>
      <trkpt lat="48.71179" lon="7.26541">
        <ele>450.5</ele>
        <time>2020-05-23T09:10:25Z</time>
      </trkpt>
      <trkpt lat="48.71182" lon="7.26538">
        <ele>450.5</ele>
        <time>2020-05-23T09:10:26Z</time>
      </trkpt>
      <trkpt lat="48.71182" lon="7.26538">
        <ele>450.5</ele>
        <time>2020-05-23T09:10:27Z</time>
      </trkpt>
      <trkpt lat="48.71187" lon="7.26535">
        <ele>450.6</ele>
        <time>2020-05-23T09:10:29Z</time>
      </trkpt>
      <trkpt lat="48.71191" lon="7.26534">
        <ele>450.8</ele>
        <time>2020-05-23T09:10:31Z</time>
      </trkpt>
      <trkpt lat="48.71195" lon="7.26532">
        <ele>451.3</ele>
        <time>2020-05-23T09:10:33Z</time>
      </trkpt>
      <trkpt lat="48.71202" lon="7.26531">
        <ele>451.5</ele>
        <time>2020-05-23T09:10:35Z</time>
      </trkpt>
      <trkpt lat="48.71206" lon="7.2653">
        <ele>451.8</ele>
        <time>2020-05-23T09:10:36Z</time>
      </trkpt>
      <trkpt lat="48.7121" lon="7.26529">
        <ele>452.3</ele>
        <time>2020-05-23T09:10:38Z</time>
      </trkpt>
      <trkpt lat="48.71214" lon="7.26528">
        <ele>452.5</ele>
        <time>2020-05-23T09:10:39Z</time>
      </trkpt>
      <trkpt lat="48.71215" lon="7.26527">
        <ele>452.8</ele>
        <time>2020-05-23T09:10:40Z</time>
      </trkpt>
      <trkpt lat="48.71219" lon="7.26526">
        <ele>452.8</ele>
        <time>2020-05-23T09:10:41Z</time>
      </trkpt>
      <trkpt lat="48.71222" lon="7.26524">
        <ele>453.1</ele>
        <time>2020-05-23T09:10:42Z</time>
      </trkpt>
      <trkpt lat="48.71228" lon="7.26521">
        <ele>453.4</ele>
        <time>2020-05-23T09:10:44Z</time>
      </trkpt>
      <trkpt lat="48.71231" lon="7.2652">
        <ele>453.7</ele>
        <time>2020-05-23T09:10:45Z</time>
      </trkpt>
      <trkpt lat="48.71236" lon="7.26519">
        <ele>454.2</ele>
        <time>2020-05-23T09:10:47Z</time>
      </trkpt>
      <trkpt lat="48.71237" lon="7.26517">
        <ele>454.2</ele>
        <time>2020-05-23T09:10:48Z</time>
      </trkpt>
      <trkpt lat="48.71241" lon="7.26515">
        <ele>454.4</ele>
        <time>2020-05-23T09:10:50Z</time>
      </trkpt>
      <trkpt lat="48.71245" lon="7.26513">
        <ele>454.3</ele>
        <time>2020-05-23T09:10:52Z</time>
      </trkpt>
      <trkpt lat="48.71248" lon="7.26512">
        <ele>454.5</ele>
        <time>2020-05-23T09:10:54Z</time>
      </trkpt>
      <trkpt lat="48.71251" lon="7.26511">
        <ele>454.7</ele>
        <time>2020-05-23T09:10:56Z</time>
      </trkpt>
      <trkpt lat="48.71254" lon="7.26509">
        <ele>454.6</ele>
        <time>2020-05-23T09:10:58Z</time>
      </trkpt>
      <trkpt lat="48.71255" lon="7.26509">
        <ele>454.7</ele>
        <time>2020-05-23T09:10:59Z</time>
      </trkpt>
      <trkpt lat="48.71257" lon="7.26507">
        <ele>454.7</ele>
        <time>2020-05-23T09:11:00Z</time>
      </trkpt>
      <trkpt lat="48.71259" lon="7.26506">
        <ele>454.8</ele>
        <time>2020-05-23T09:11:01Z</time>
      </trkpt>
      <trkpt lat="48.71263" lon="7.26503">
        <ele>454.8</ele>
        <time>2020-05-23T09:11:03Z</time>
      </trkpt>
      <trkpt lat="48.71267" lon="7.265">
        <ele>454.8</ele>
        <time>2020-05-23T09:11:05Z</time>
      </trkpt>
      <trkpt lat="48.71273" lon="7.26498">
        <ele>455.1</ele>
        <time>2020-05-23T09:11:07Z</time>
      </trkpt>
      <trkpt lat="48.71281" lon="7.26497">
        <ele>455.4</ele>
        <time>2020-05-23T09:11:09Z</time>
      </trkpt>
      <trkpt lat="48.71287" lon="7.26496">
        <ele>455.4</ele>
        <time>2020-05-23T09:11:11Z</time>
      </trkpt>
      <trkpt lat="48.7129" lon="7.26495">
        <ele>455.4</ele>
        <time>2020-05-23T09:11:12Z</time>
      </trkpt>
      <trkpt lat="48.71294" lon="7.26492">
        <ele>455.4</ele>
        <time>2020-05-23T09:11:14Z</time>
      </trkpt>
      <trkpt lat="48.71297" lon="7.26491">
        <ele>455.3</ele>
        <time>2020-05-23T09:11:15Z</time>
      </trkpt>
      <trkpt lat="48.71302" lon="7.26488">
        <ele>455.2</ele>
        <time>2020-05-23T09:11:17Z</time>
      </trkpt>
      <trkpt lat="48.71306" lon="7.26485">
        <ele>455.1</ele>
        <time>2020-05-23T09:11:19Z</time>
      </trkpt>
      <trkpt lat="48.71308" lon="7.26482">
        <ele>454.9</ele>
        <time>2020-05-23T09:11:21Z</time>
      </trkpt>
      <trkpt lat="48.71309" lon="7.26481">
        <ele>454.9</ele>
        <time>2020-05-23T09:11:22Z</time>
      </trkpt>
      <trkpt lat="48.71314" lon="7.26479">
        <ele>454.7</ele>
        <time>2020-05-23T09:11:24Z</time>
      </trkpt>
      <trkpt lat="48.71316" lon="7.26478">
        <ele>454.6</ele>
        <time>2020-05-23T09:11:25Z</time>
      </trkpt>
      <trkpt lat="48.71317" lon="7.26478">
        <ele>454.4</ele>
        <time>2020-05-23T09:11:26Z</time>
      </trkpt>
      <trkpt lat="48.71321" lon="7.26477">
        <ele>454.3</ele>
        <time>2020-05-23T09:11:28Z</time>
      </trkpt>
      <trkpt lat="48.71324" lon="7.26477">
        <ele>454.2</ele>
        <time>2020-05-23T09:11:29Z</time>
      </trkpt>
      <trkpt lat="48.71329" lon="7.26475">
        <ele>453.8</ele>
        <time>2020-05-23T09:11:31Z</time>
      </trkpt>
      <trkpt lat="48.71333" lon="7.26474">
        <ele>453.7</ele>
        <time>2020-05-23T09:11:32Z</time>
      </trkpt>
      <trkpt lat="48.71334" lon="7.26473">
        <ele>453.5</ele>
        <time>2020-05-23T09:11:33Z</time>
      </trkpt>
      <trkpt lat="48.71338" lon="7.26473">
        <ele>453.4</ele>
        <time>2020-05-23T09:11:35Z</time>
      </trkpt>
      <trkpt lat="48.71342" lon="7.26473">
        <ele>453.2</ele>
        <time>2020-05-23T09:11:37Z</time>
      </trkpt>
      <trkpt lat="48.71345" lon="7.26473">
        <ele>453.1</ele>
        <time>2020-05-23T09:11:38Z</time>
      </trkpt>
      <trkpt lat="48.71346" lon="7.26473">
        <ele>453.1</ele>
        <time>2020-05-23T09:11:39Z</time>
      </trkpt>
      <trkpt lat="48.71348" lon="7.26472">
        <ele>453.1</ele>
        <time>2020-05-23T09:11:40Z</time>
      </trkpt>
      <trkpt lat="48.71349" lon="7.26472">
        <ele>453</ele>
        <time>2020-05-23T09:11:41Z</time>
      </trkpt>
      <trkpt lat="48.71351" lon="7.2647">
        <ele>452.8</ele>
        <time>2020-05-23T09:11:43Z</time>
      </trkpt>
      <trkpt lat="48.71353" lon="7.26469">
        <ele>452.8</ele>
        <time>2020-05-23T09:11:44Z</time>
      </trkpt>
      <trkpt lat="48.71358" lon="7.26467">
        <ele>452.7</ele>
        <time>2020-05-23T09:11:46Z</time>
      </trkpt>
      <trkpt lat="48.71361" lon="7.26467">
        <ele>452.6</ele>
        <time>2020-05-23T09:11:47Z</time>
      </trkpt>
      <trkpt lat="48.71367" lon="7.26466">
        <ele>452.5</ele>
        <time>2020-05-23T09:11:49Z</time>
      </trkpt>
      <trkpt lat="48.71373" lon="7.26466">
        <ele>452.5</ele>
        <time>2020-05-23T09:11:51Z</time>
      </trkpt>
      <trkpt lat="48.71378" lon="7.26466">
        <ele>452.5</ele>
        <time>2020-05-23T09:11:53Z</time>
      </trkpt>
      <trkpt lat="48.7138" lon="7.26466">
        <ele>452.5</ele>
        <time>2020-05-23T09:11:54Z</time>
      </trkpt>
      <trkpt lat="48.71383" lon="7.26467">
        <ele>452.5</ele>
        <time>2020-05-23T09:11:55Z</time>
      </trkpt>
      <trkpt lat="48.71388" lon="7.26468">
        <ele>452.4</ele>
        <time>2020-05-23T09:11:57Z</time>
      </trkpt>
      <trkpt lat="48.71391" lon="7.26469">
        <ele>452.3</ele>
        <time>2020-05-23T09:11:58Z</time>
      </trkpt>
      <trkpt lat="48.71397" lon="7.2647">
        <ele>452.1</ele>
        <time>2020-05-23T09:12:00Z</time>
      </trkpt>
      <trkpt lat="48.71404" lon="7.26472">
        <ele>451.9</ele>
        <time>2020-05-23T09:12:02Z</time>
      </trkpt>
      <trkpt lat="48.71409" lon="7.26473">
        <ele>451.6</ele>
        <time>2020-05-23T09:12:04Z</time>
      </trkpt>
      <trkpt lat="48.71412" lon="7.26473">
        <ele>451.3</ele>
        <time>2020-05-23T09:12:05Z</time>
      </trkpt>
      <trkpt lat="48.71418" lon="7.26475">
        <ele>450.9</ele>
        <time>2020-05-23T09:12:07Z</time>
      </trkpt>
      <trkpt lat="48.71421" lon="7.26476">
        <ele>450.6</ele>
        <time>2020-05-23T09:12:08Z</time>
      </trkpt>
      <trkpt lat="48.71426" lon="7.26479">
        <ele>450.2</ele>
        <time>2020-05-23T09:12:10Z</time>
      </trkpt>
      <trkpt lat="48.71433" lon="7.26482">
        <ele>449.6</ele>
        <time>2020-05-23T09:12:12Z</time>
      </trkpt>
      <trkpt lat="48.71441" lon="7.26485">
        <ele>449.2</ele>
        <time>2020-05-23T09:12:14Z</time>
      </trkpt>
      <trkpt lat="48.71444" lon="7.26488">
        <ele>448.8</ele>
        <time>2020-05-23T09:12:15Z</time>
      </trkpt>
      <trkpt lat="48.7145" lon="7.26494">
        <ele>448.4</ele>
        <time>2020-05-23T09:12:17Z</time>
      </trkpt>
      <trkpt lat="48.71452" lon="7.26497">
        <ele>448.3</ele>
        <time>2020-05-23T09:12:18Z</time>
      </trkpt>
      <trkpt lat="48.71458" lon="7.26501">
        <ele>447.7</ele>
        <time>2020-05-23T09:12:20Z</time>
      </trkpt>
      <trkpt lat="48.71463" lon="7.26503">
        <ele>447.3</ele>
        <time>2020-05-23T09:12:22Z</time>
      </trkpt>
      <trkpt lat="48.71465" lon="7.26503">
        <ele>447.2</ele>
        <time>2020-05-23T09:12:23Z</time>
      </trkpt>
      <trkpt lat="48.7147" lon="7.26504">
        <ele>446.8</ele>
        <time>2020-05-23T09:12:25Z</time>
      </trkpt>
      <trkpt lat="48.71474" lon="7.26504">
        <ele>446.6</ele>
        <time>2020-05-23T09:12:27Z</time>
      </trkpt>
      <trkpt lat="48.71477" lon="7.26504">
        <ele>446.4</ele>
        <time>2020-05-23T09:12:28Z</time>
      </trkpt>
      <trkpt lat="48.71482" lon="7.26506">
        <ele>445.8</ele>
        <time>2020-05-23T09:12:30Z</time>
      </trkpt>
      <trkpt lat="48.71484" lon="7.26507">
        <ele>445.6</ele>
        <time>2020-05-23T09:12:31Z</time>
      </trkpt>
      <trkpt lat="48.71488" lon="7.2651">
        <ele>445.4</ele>
        <time>2020-05-23T09:12:33Z</time>
      </trkpt>
      <trkpt lat="48.71489" lon="7.2651">
        <ele>445.2</ele>
        <time>2020-05-23T09:12:34Z</time>
      </trkpt>
      <trkpt lat="48.7149" lon="7.26511">
        <ele>445</ele>
        <time>2020-05-23T09:12:35Z</time>
      </trkpt>
      <trkpt lat="48.71495" lon="7.26518">
        <ele>444.3</ele>
        <time>2020-05-23T09:12:37Z</time>
      </trkpt>
      <trkpt lat="48.715" lon="7.26521">
        <ele>443.9</ele>
        <time>2020-05-23T09:12:38Z</time>
      </trkpt>
      <trkpt lat="48.71509" lon="7.26523">
        <ele>442.8</ele>
        <time>2020-05-23T09:12:40Z</time>
      </trkpt>
      <trkpt lat="48.71518" lon="7.2652">
        <ele>441.4</ele>
        <time>2020-05-23T09:12:42Z</time>
      </trkpt>
      <trkpt lat="48.71527" lon="7.26518">
        <ele>440</ele>
        <time>2020-05-23T09:12:44Z</time>
      </trkpt>
      <trkpt lat="48.71533" lon="7.26516">
        <ele>439.9</ele>
        <time>2020-05-23T09:12:45Z</time>
      </trkpt>
      <trkpt lat="48.71539" lon="7.26512">
        <ele>438.5</ele>
        <time>2020-05-23T09:12:46Z</time>
      </trkpt>
      <trkpt lat="48.71549" lon="7.26503">
        <ele>437.2</ele>
        <time>2020-05-23T09:12:48Z</time>
      </trkpt>
      <trkpt lat="48.71558" lon="7.26496">
        <ele>436.2</ele>
        <time>2020-05-23T09:12:50Z</time>
      </trkpt>
      <trkpt lat="48.71563" lon="7.26494">
        <ele>435.7</ele>
        <time>2020-05-23T09:12:51Z</time>
      </trkpt>
      <trkpt lat="48.71567" lon="7.2649">
        <ele>435.3</ele>
        <time>2020-05-23T09:12:52Z</time>
      </trkpt>
      <trkpt lat="48.71574" lon="7.26484">
        <ele>434.4</ele>
        <time>2020-05-23T09:12:54Z</time>
      </trkpt>
      <trkpt lat="48.71582" lon="7.26478">
        <ele>433.5</ele>
        <time>2020-05-23T09:12:56Z</time>
      </trkpt>
      <trkpt lat="48.7159" lon="7.26473">
        <ele>432.6</ele>
        <time>2020-05-23T09:12:58Z</time>
      </trkpt>
      <trkpt lat="48.71593" lon="7.26471">
        <ele>432.2</ele>
        <time>2020-05-23T09:12:59Z</time>
      </trkpt>
      <trkpt lat="48.71601" lon="7.26468">
        <ele>431.4</ele>
        <time>2020-05-23T09:13:01Z</time>
      </trkpt>
      <trkpt lat="48.71609" lon="7.26466">
        <ele>430.5</ele>
        <time>2020-05-23T09:13:03Z</time>
      </trkpt>
      <trkpt lat="48.71617" lon="7.26464">
        <ele>429.6</ele>
        <time>2020-05-23T09:13:05Z</time>
      </trkpt>
      <trkpt lat="48.71622" lon="7.26463">
        <ele>429</ele>
        <time>2020-05-23T09:13:07Z</time>
      </trkpt>
      <trkpt lat="48.71625" lon="7.26463">
        <ele>428.7</ele>
        <time>2020-05-23T09:13:08Z</time>
      </trkpt>
      <trkpt lat="48.7163" lon="7.26461">
        <ele>428.1</ele>
        <time>2020-05-23T09:13:10Z</time>
      </trkpt>
      <trkpt lat="48.71637" lon="7.26457">
        <ele>427.3</ele>
        <time>2020-05-23T09:13:12Z</time>
      </trkpt>
      <trkpt lat="48.71642" lon="7.26455">
        <ele>426.8</ele>
        <time>2020-05-23T09:13:13Z</time>
      </trkpt>
      <trkpt lat="48.71647" lon="7.26453">
        <ele>426.2</ele>
        <time>2020-05-23T09:13:14Z</time>
      </trkpt>
      <trkpt lat="48.71657" lon="7.26447">
        <ele>425</ele>
        <time>2020-05-23T09:13:16Z</time>
      </trkpt>
      <trkpt lat="48.71663" lon="7.26444">
        <ele>424.4</ele>
        <time>2020-05-23T09:13:17Z</time>
      </trkpt>
      <trkpt lat="48.71673" lon="7.26437">
        <ele>423.3</ele>
        <time>2020-05-23T09:13:19Z</time>
      </trkpt>
      <trkpt lat="48.71678" lon="7.26434">
        <ele>422.8</ele>
        <time>2020-05-23T09:13:20Z</time>
      </trkpt>
      <trkpt lat="48.71688" lon="7.26425">
        <ele>421.9</ele>
        <time>2020-05-23T09:13:22Z</time>
      </trkpt>
      <trkpt lat="48.71692" lon="7.26421">
        <ele>421.6</ele>
        <time>2020-05-23T09:13:23Z</time>
      </trkpt>
      <trkpt lat="48.71696" lon="7.26418">
        <ele>421.3</ele>
        <time>2020-05-23T09:13:24Z</time>
      </trkpt>
      <trkpt lat="48.71703" lon="7.26409">
        <ele>420.8</ele>
        <time>2020-05-23T09:13:26Z</time>
      </trkpt>
      <trkpt lat="48.71707" lon="7.26405">
        <ele>420.4</ele>
        <time>2020-05-23T09:13:27Z</time>
      </trkpt>
      <trkpt lat="48.71711" lon="7.264">
        <ele>420.1</ele>
        <time>2020-05-23T09:13:28Z</time>
      </trkpt>
      <trkpt lat="48.71717" lon="7.2639">
        <ele>419.3</ele>
        <time>2020-05-23T09:13:30Z</time>
      </trkpt>
      <trkpt lat="48.7172" lon="7.26383">
        <ele>418.9</ele>
        <time>2020-05-23T09:13:31Z</time>
      </trkpt>
      <trkpt lat="48.71725" lon="7.2637">
        <ele>417.8</ele>
        <time>2020-05-23T09:13:33Z</time>
      </trkpt>
      <trkpt lat="48.71729" lon="7.26358">
        <ele>416.8</ele>
        <time>2020-05-23T09:13:35Z</time>
      </trkpt>
      <trkpt lat="48.71731" lon="7.26353">
        <ele>416.4</ele>
        <time>2020-05-23T09:13:36Z</time>
      </trkpt>
      <trkpt lat="48.71736" lon="7.26342">
        <ele>415.3</ele>
        <time>2020-05-23T09:13:38Z</time>
      </trkpt>
      <trkpt lat="48.71739" lon="7.26336">
        <ele>414.8</ele>
        <time>2020-05-23T09:13:39Z</time>
      </trkpt>
      <trkpt lat="48.71744" lon="7.26327">
        <ele>413.8</ele>
        <time>2020-05-23T09:13:41Z</time>
      </trkpt>
      <trkpt lat="48.71747" lon="7.26323">
        <ele>413.3</ele>
        <time>2020-05-23T09:13:42Z</time>
      </trkpt>
      <trkpt lat="48.71753" lon="7.26314">
        <ele>412.1</ele>
        <time>2020-05-23T09:13:44Z</time>
      </trkpt>
      <trkpt lat="48.71757" lon="7.26307">
        <ele>411</ele>
        <time>2020-05-23T09:13:46Z</time>
      </trkpt>
      <trkpt lat="48.71759" lon="7.26304">
        <ele>410.5</ele>
        <time>2020-05-23T09:13:47Z</time>
      </trkpt>
      <trkpt lat="48.71763" lon="7.26299">
        <ele>409.7</ele>
        <time>2020-05-23T09:13:49Z</time>
      </trkpt>
      <trkpt lat="48.71765" lon="7.26292">
        <ele>408.9</ele>
        <time>2020-05-23T09:13:51Z</time>
      </trkpt>
      <trkpt lat="48.71766" lon="7.26288">
        <ele>408.4</ele>
        <time>2020-05-23T09:13:52Z</time>
      </trkpt>
      <trkpt lat="48.71766" lon="7.26277">
        <ele>407.5</ele>
        <time>2020-05-23T09:13:54Z</time>
      </trkpt>
      <trkpt lat="48.71765" lon="7.26273">
        <ele>407.2</ele>
        <time>2020-05-23T09:13:55Z</time>
      </trkpt>
      <trkpt lat="48.71765" lon="7.26269">
        <ele>406.9</ele>
        <time>2020-05-23T09:13:56Z</time>
      </trkpt>
      <trkpt lat="48.71764" lon="7.26264">
        <ele>406.5</ele>
        <time>2020-05-23T09:13:57Z</time>
      </trkpt>
      <trkpt lat="48.71761" lon="7.26251">
        <ele>405.4</ele>
        <time>2020-05-23T09:13:59Z</time>
      </trkpt>
      <trkpt lat="48.71761" lon="7.26237">
        <ele>404.4</ele>
        <time>2020-05-23T09:14:01Z</time>
      </trkpt>
      <trkpt lat="48.71763" lon="7.2623">
        <ele>403.9</ele>
        <time>2020-05-23T09:14:02Z</time>
      </trkpt>
      <trkpt lat="48.71768" lon="7.26218">
        <ele>402.9</ele>
        <time>2020-05-23T09:14:04Z</time>
      </trkpt>
      <trkpt lat="48.7177" lon="7.26213">
        <ele>402.5</ele>
        <time>2020-05-23T09:14:05Z</time>
      </trkpt>
      <trkpt lat="48.71773" lon="7.26208">
        <ele>402.1</ele>
        <time>2020-05-23T09:14:06Z</time>
      </trkpt>
      <trkpt lat="48.71778" lon="7.26199">
        <ele>401.2</ele>
        <time>2020-05-23T09:14:08Z</time>
      </trkpt>
      <trkpt lat="48.71784" lon="7.26189">
        <ele>400.3</ele>
        <time>2020-05-23T09:14:10Z</time>
      </trkpt>
      <trkpt lat="48.71789" lon="7.26179">
        <ele>399.4</ele>
        <time>2020-05-23T09:14:12Z</time>
      </trkpt>
      <trkpt lat="48.71792" lon="7.26174">
        <ele>398.9</ele>
        <time>2020-05-23T09:14:13Z</time>
      </trkpt>
      <trkpt lat="48.71796" lon="7.26163">
        <ele>397.9</ele>
        <time>2020-05-23T09:14:15Z</time>
      </trkpt>
      <trkpt lat="48.718" lon="7.26153">
        <ele>397.1</ele>
        <time>2020-05-23T09:14:17Z</time>
      </trkpt>
      <trkpt lat="48.71801" lon="7.26149">
        <ele>396.8</ele>
        <time>2020-05-23T09:14:18Z</time>
      </trkpt>
      <trkpt lat="48.71804" lon="7.26144">
        <ele>396.2</ele>
        <time>2020-05-23T09:14:20Z</time>
      </trkpt>
      <trkpt lat="48.71804" lon="7.26142">
        <ele>396.1</ele>
        <time>2020-05-23T09:14:22Z</time>
      </trkpt>
      <trkpt lat="48.71804" lon="7.26142">
        <ele>396</ele>
        <time>2020-05-23T09:14:23Z</time>
      </trkpt>
      <trkpt lat="48.71803" lon="7.26142">
        <ele>395.9</ele>
        <time>2020-05-23T09:14:25Z</time>
      </trkpt>
      <trkpt lat="48.71803" lon="7.26142">
        <ele>395.9</ele>
        <time>2020-05-23T09:14:26Z</time>
      </trkpt>
      <trkpt lat="48.71806" lon="7.26141">
        <ele>395.6</ele>
        <time>2020-05-23T09:14:28Z</time>
      </trkpt>
      <trkpt lat="48.71811" lon="7.26142">
        <ele>395.3</ele>
        <time>2020-05-23T09:14:30Z</time>
      </trkpt>
      <trkpt lat="48.71814" lon="7.26144">
        <ele>395</ele>
        <time>2020-05-23T09:14:31Z</time>
      </trkpt>
      <trkpt lat="48.71816" lon="7.26145">
        <ele>394.9</ele>
        <time>2020-05-23T09:14:32Z</time>
      </trkpt>
      <trkpt lat="48.71819" lon="7.26147">
        <ele>394.7</ele>
        <time>2020-05-23T09:14:33Z</time>
      </trkpt>
      <trkpt lat="48.71826" lon="7.2615">
        <ele>394.1</ele>
        <time>2020-05-23T09:14:35Z</time>
      </trkpt>
      <trkpt lat="48.71835" lon="7.26152">
        <ele>393.2</ele>
        <time>2020-05-23T09:14:37Z</time>
      </trkpt>
      <trkpt lat="48.7184" lon="7.26154">
        <ele>392.6</ele>
        <time>2020-05-23T09:14:38Z</time>
      </trkpt>
      <trkpt lat="48.71845" lon="7.26157">
        <ele>392.1</ele>
        <time>2020-05-23T09:14:39Z</time>
      </trkpt>
      <trkpt lat="48.71853" lon="7.26158">
        <ele>391.1</ele>
        <time>2020-05-23T09:14:41Z</time>
      </trkpt>
      <trkpt lat="48.71857" lon="7.26158">
        <ele>390.7</ele>
        <time>2020-05-23T09:14:42Z</time>
      </trkpt>
      <trkpt lat="48.71861" lon="7.26157">
        <ele>390.2</ele>
        <time>2020-05-23T09:14:43Z</time>
      </trkpt>
      <trkpt lat="48.71865" lon="7.26155">
        <ele>389.8</ele>
        <time>2020-05-23T09:14:44Z</time>
      </trkpt>
      <trkpt lat="48.71871" lon="7.26144">
        <ele>388.4</ele>
        <time>2020-05-23T09:14:46Z</time>
      </trkpt>
      <trkpt lat="48.71874" lon="7.26135">
        <ele>387.9</ele>
        <time>2020-05-23T09:14:47Z</time>
      </trkpt>
      <trkpt lat="48.71877" lon="7.26126">
        <ele>387.5</ele>
        <time>2020-05-23T09:14:48Z</time>
      </trkpt>
      <trkpt lat="48.71884" lon="7.2611">
        <ele>386.8</ele>
        <time>2020-05-23T09:14:50Z</time>
      </trkpt>
      <trkpt lat="48.71889" lon="7.26104">
        <ele>386.5</ele>
        <time>2020-05-23T09:14:51Z</time>
      </trkpt>
      <trkpt lat="48.71893" lon="7.26098">
        <ele>386.2</ele>
        <time>2020-05-23T09:14:52Z</time>
      </trkpt>
      <trkpt lat="48.71904" lon="7.26086">
        <ele>385.7</ele>
        <time>2020-05-23T09:14:54Z</time>
      </trkpt>
      <trkpt lat="48.7191" lon="7.26081">
        <ele>385.4</ele>
        <time>2020-05-23T09:14:55Z</time>
      </trkpt>
      <trkpt lat="48.71922" lon="7.26073">
        <ele>385</ele>
        <time>2020-05-23T09:14:57Z</time>
      </trkpt>
      <trkpt lat="48.71928" lon="7.2607">
        <ele>384.7</ele>
        <time>2020-05-23T09:14:58Z</time>
      </trkpt>
      <trkpt lat="48.71934" lon="7.26066">
        <ele>384.4</ele>
        <time>2020-05-23T09:14:59Z</time>
      </trkpt>
      <trkpt lat="48.71945" lon="7.2606">
        <ele>383.9</ele>
        <time>2020-05-23T09:15:01Z</time>
      </trkpt>
      <trkpt lat="48.71951" lon="7.26057">
        <ele>383.6</ele>
        <time>2020-05-23T09:15:02Z</time>
      </trkpt>
      <trkpt lat="48.71964" lon="7.26052">
        <ele>383.1</ele>
        <time>2020-05-23T09:15:04Z</time>
      </trkpt>
      <trkpt lat="48.7197" lon="7.26048">
        <ele>382.8</ele>
        <time>2020-05-23T09:15:05Z</time>
      </trkpt>
      <trkpt lat="48.7198" lon="7.26039">
        <ele>382.6</ele>
        <time>2020-05-23T09:15:07Z</time>
      </trkpt>
      <trkpt lat="48.71991" lon="7.26032">
        <ele>382.3</ele>
        <time>2020-05-23T09:15:09Z</time>
      </trkpt>
      <trkpt lat="48.72003" lon="7.26025">
        <ele>382.2</ele>
        <time>2020-05-23T09:15:11Z</time>
      </trkpt>
      <trkpt lat="48.72016" lon="7.26017">
        <ele>382</ele>
        <time>2020-05-23T09:15:13Z</time>
      </trkpt>
      <trkpt lat="48.72023" lon="7.26012">
        <ele>381.9</ele>
        <time>2020-05-23T09:15:14Z</time>
      </trkpt>
      <trkpt lat="48.72035" lon="7.26005">
        <ele>381.9</ele>
        <time>2020-05-23T09:15:16Z</time>
      </trkpt>
      <trkpt lat="48.72042" lon="7.26003">
        <ele>382</ele>
        <time>2020-05-23T09:15:17Z</time>
      </trkpt>
      <trkpt lat="48.72053" lon="7.25999">
        <ele>382.3</ele>
        <time>2020-05-23T09:15:19Z</time>
      </trkpt>
      <trkpt lat="48.72058" lon="7.25997">
        <ele>382.6</ele>
        <time>2020-05-23T09:15:20Z</time>
      </trkpt>
      <trkpt lat="48.72069" lon="7.25997">
        <ele>382.9</ele>
        <time>2020-05-23T09:15:22Z</time>
      </trkpt>
      <trkpt lat="48.72079" lon="7.25997">
        <ele>383.3</ele>
        <time>2020-05-23T09:15:24Z</time>
      </trkpt>
      <trkpt lat="48.72084" lon="7.25998">
        <ele>383.5</ele>
        <time>2020-05-23T09:15:25Z</time>
      </trkpt>
      <trkpt lat="48.72093" lon="7.25997">
        <ele>383.9</ele>
        <time>2020-05-23T09:15:27Z</time>
      </trkpt>
      <trkpt lat="48.72097" lon="7.25997">
        <ele>384</ele>
        <time>2020-05-23T09:15:28Z</time>
      </trkpt>
      <trkpt lat="48.72105" lon="7.25996">
        <ele>384.3</ele>
        <time>2020-05-23T09:15:30Z</time>
      </trkpt>
      <trkpt lat="48.72109" lon="7.25995">
        <ele>384.5</ele>
        <time>2020-05-23T09:15:31Z</time>
      </trkpt>
      <trkpt lat="48.72117" lon="7.25993">
        <ele>384.8</ele>
        <time>2020-05-23T09:15:33Z</time>
      </trkpt>
      <trkpt lat="48.72123" lon="7.25991">
        <ele>385</ele>
        <time>2020-05-23T09:15:35Z</time>
      </trkpt>
      <trkpt lat="48.72126" lon="7.25991">
        <ele>385.2</ele>
        <time>2020-05-23T09:15:36Z</time>
      </trkpt>
      <trkpt lat="48.72129" lon="7.25991">
        <ele>385.3</ele>
        <time>2020-05-23T09:15:37Z</time>
      </trkpt>
      <trkpt lat="48.72136" lon="7.2599">
        <ele>385.6</ele>
        <time>2020-05-23T09:15:39Z</time>
      </trkpt>
      <trkpt lat="48.72143" lon="7.2599">
        <ele>385.9</ele>
        <time>2020-05-23T09:15:41Z</time>
      </trkpt>
      <trkpt lat="48.72148" lon="7.25989">
        <ele>386.1</ele>
        <time>2020-05-23T09:15:42Z</time>
      </trkpt>
      <trkpt lat="48.72152" lon="7.25988">
        <ele>386.3</ele>
        <time>2020-05-23T09:15:43Z</time>
      </trkpt>
      <trkpt lat="48.72158" lon="7.25986">
        <ele>386.5</ele>
        <time>2020-05-23T09:15:45Z</time>
      </trkpt>
      <trkpt lat="48.72166" lon="7.25982">
        <ele>386.9</ele>
        <time>2020-05-23T09:15:47Z</time>
      </trkpt>
      <trkpt lat="48.72169" lon="7.2598">
        <ele>387.1</ele>
        <time>2020-05-23T09:15:48Z</time>
      </trkpt>
      <trkpt lat="48.72173" lon="7.25977">
        <ele>387.3</ele>
        <time>2020-05-23T09:15:49Z</time>
      </trkpt>
      <trkpt lat="48.72179" lon="7.25971">
        <ele>387.5</ele>
        <time>2020-05-23T09:15:51Z</time>
      </trkpt>
      <trkpt lat="48.72182" lon="7.25968">
        <ele>387.7</ele>
        <time>2020-05-23T09:15:52Z</time>
      </trkpt>
      <trkpt lat="48.72188" lon="7.25961">
        <ele>388</ele>
        <time>2020-05-23T09:15:54Z</time>
      </trkpt>
      <trkpt lat="48.72191" lon="7.25957">
        <ele>388.1</ele>
        <time>2020-05-23T09:15:55Z</time>
      </trkpt>
      <trkpt lat="48.72193" lon="7.25953">
        <ele>388.2</ele>
        <time>2020-05-23T09:15:56Z</time>
      </trkpt>
      <trkpt lat="48.72198" lon="7.25945">
        <ele>388.3</ele>
        <time>2020-05-23T09:15:58Z</time>
      </trkpt>
      <trkpt lat="48.72204" lon="7.25937">
        <ele>388.4</ele>
        <time>2020-05-23T09:16:00Z</time>
      </trkpt>
      <trkpt lat="48.72207" lon="7.25933">
        <ele>388.4</ele>
        <time>2020-05-23T09:16:01Z</time>
      </trkpt>
      <trkpt lat="48.72213" lon="7.25925">
        <ele>388.3</ele>
        <time>2020-05-23T09:16:03Z</time>
      </trkpt>
      <trkpt lat="48.72221" lon="7.25917">
        <ele>388.2</ele>
        <time>2020-05-23T09:16:05Z</time>
      </trkpt>
      <trkpt lat="48.72225" lon="7.25912">
        <ele>388.1</ele>
        <time>2020-05-23T09:16:06Z</time>
      </trkpt>
      <trkpt lat="48.72229" lon="7.25908">
        <ele>388</ele>
        <time>2020-05-23T09:16:07Z</time>
      </trkpt>
      <trkpt lat="48.72233" lon="7.25904">
        <ele>387.9</ele>
        <time>2020-05-23T09:16:08Z</time>
      </trkpt>
      <trkpt lat="48.72237" lon="7.25899">
        <ele>387.8</ele>
        <time>2020-05-23T09:16:09Z</time>
      </trkpt>
      <trkpt lat="48.72246" lon="7.25889">
        <ele>387.6</ele>
        <time>2020-05-23T09:16:11Z</time>
      </trkpt>
      <trkpt lat="48.72255" lon="7.25881">
        <ele>387.4</ele>
        <time>2020-05-23T09:16:13Z</time>
      </trkpt>
      <trkpt lat="48.72259" lon="7.25879">
        <ele>387.4</ele>
        <time>2020-05-23T09:16:14Z</time>
      </trkpt>
      <trkpt lat="48.72268" lon="7.2588">
        <ele>387.2</ele>
        <time>2020-05-23T09:16:16Z</time>
      </trkpt>
      <trkpt lat="48.72272" lon="7.25882">
        <ele>387.2</ele>
        <time>2020-05-23T09:16:17Z</time>
      </trkpt>
      <trkpt lat="48.72276" lon="7.25884">
        <ele>387.4</ele>
        <time>2020-05-23T09:16:18Z</time>
      </trkpt>
      <trkpt lat="48.72279" lon="7.25885">
        <ele>387.4</ele>
        <time>2020-05-23T09:16:19Z</time>
      </trkpt>
      <trkpt lat="48.72286" lon="7.25886">
        <ele>387.6</ele>
        <time>2020-05-23T09:16:21Z</time>
      </trkpt>
      <trkpt lat="48.72293" lon="7.25884">
        <ele>387.8</ele>
        <time>2020-05-23T09:16:23Z</time>
      </trkpt>
      <trkpt lat="48.72297" lon="7.25883">
        <ele>387.9</ele>
        <time>2020-05-23T09:16:24Z</time>
      </trkpt>
      <trkpt lat="48.72303" lon="7.2588">
        <ele>388.2</ele>
        <time>2020-05-23T09:16:26Z</time>
      </trkpt>
      <trkpt lat="48.72309" lon="7.25877">
        <ele>388.4</ele>
        <time>2020-05-23T09:16:28Z</time>
      </trkpt>
      <trkpt lat="48.72315" lon="7.25876">
        <ele>388.6</ele>
        <time>2020-05-23T09:16:30Z</time>
      </trkpt>
      <trkpt lat="48.72317" lon="7.25875">
        <ele>388.7</ele>
        <time>2020-05-23T09:16:31Z</time>
      </trkpt>
      <trkpt lat="48.72318" lon="7.25875">
        <ele>388.7</ele>
        <time>2020-05-23T09:16:32Z</time>
      </trkpt>
      <trkpt lat="48.7232" lon="7.25875">
        <ele>388.8</ele>
        <time>2020-05-23T09:16:33Z</time>
      </trkpt>
      <trkpt lat="48.7232" lon="7.25875">
        <ele>388.8</ele>
        <time>2020-05-23T09:16:35Z</time>
      </trkpt>
      <trkpt lat="48.7232" lon="7.25876">
        <ele>388.8</ele>
        <time>2020-05-23T09:16:36Z</time>
      </trkpt>
      <trkpt lat="48.7232" lon="7.25875">
        <ele>388.8</ele>
        <time>2020-05-23T09:16:38Z</time>
      </trkpt>
      <trkpt lat="48.7232" lon="7.25875">
        <ele>388.8</ele>
        <time>2020-05-23T09:16:40Z</time>
      </trkpt>
      <trkpt lat="48.72321" lon="7.25875">
        <ele>388.9</ele>
        <time>2020-05-23T09:16:42Z</time>
      </trkpt>
      <trkpt lat="48.72321" lon="7.25875">
        <ele>388.9</ele>
        <time>2020-05-23T09:16:43Z</time>
      </trkpt>
      <trkpt lat="48.72321" lon="7.25875">
        <ele>388.9</ele>
        <time>2020-05-23T09:16:45Z</time>
      </trkpt>
      <trkpt lat="48.72321" lon="7.25875">
        <ele>388.9</ele>
        <time>2020-05-23T09:16:46Z</time>
      </trkpt>
      <trkpt lat="48.72324" lon="7.25873">
        <ele>389</ele>
        <time>2020-05-23T09:17:54Z</time>
      </trkpt>
      <trkpt lat="48.72325" lon="7.25873">
        <ele>389</ele>
        <time>2020-05-23T09:17:55Z</time>
      </trkpt>
      <trkpt lat="48.72325" lon="7.25873">
        <ele>389.1</ele>
        <time>2020-05-23T09:17:57Z</time>
      </trkpt>
      <trkpt lat="48.72326" lon="7.25875">
        <ele>389.1</ele>
        <time>2020-05-23T09:17:59Z</time>
      </trkpt>
      <trkpt lat="48.7233" lon="7.25876">
        <ele>389.3</ele>
        <time>2020-05-23T09:18:01Z</time>
      </trkpt>
      <trkpt lat="48.72332" lon="7.25876">
        <ele>389.4</ele>
        <time>2020-05-23T09:18:02Z</time>
      </trkpt>
      <trkpt lat="48.72336" lon="7.25876">
        <ele>389.6</ele>
        <time>2020-05-23T09:18:04Z</time>
      </trkpt>
      <trkpt lat="48.72339" lon="7.25877">
        <ele>389.7</ele>
        <time>2020-05-23T09:18:05Z</time>
      </trkpt>
      <trkpt lat="48.72344" lon="7.25877">
        <ele>390</ele>
        <time>2020-05-23T09:18:07Z</time>
      </trkpt>
      <trkpt lat="48.72348" lon="7.25875">
        <ele>390.3</ele>
        <time>2020-05-23T09:18:09Z</time>
      </trkpt>
      <trkpt lat="48.72351" lon="7.25875">
        <ele>390.5</ele>
        <time>2020-05-23T09:18:10Z</time>
      </trkpt>
      <trkpt lat="48.72355" lon="7.25877">
        <ele>390.8</ele>
        <time>2020-05-23T09:18:12Z</time>
      </trkpt>
      <trkpt lat="48.72357" lon="7.25878">
        <ele>390.9</ele>
        <time>2020-05-23T09:18:13Z</time>
      </trkpt>
      <trkpt lat="48.72361" lon="7.2588">
        <ele>391.2</ele>
        <time>2020-05-23T09:18:15Z</time>
      </trkpt>
      <trkpt lat="48.72365" lon="7.25881">
        <ele>391.5</ele>
        <time>2020-05-23T09:18:17Z</time>
      </trkpt>
      <trkpt lat="48.72368" lon="7.25882">
        <ele>391.6</ele>
        <time>2020-05-23T09:18:18Z</time>
      </trkpt>
      <trkpt lat="48.7237" lon="7.25883">
        <ele>391.8</ele>
        <time>2020-05-23T09:18:20Z</time>
      </trkpt>
      <trkpt lat="48.72372" lon="7.25883">
        <ele>391.9</ele>
        <time>2020-05-23T09:18:21Z</time>
      </trkpt>
      <trkpt lat="48.72376" lon="7.25883">
        <ele>392.2</ele>
        <time>2020-05-23T09:18:23Z</time>
      </trkpt>
      <trkpt lat="48.72381" lon="7.25882">
        <ele>392.5</ele>
        <time>2020-05-23T09:18:25Z</time>
      </trkpt>
      <trkpt lat="48.72386" lon="7.25883">
        <ele>393</ele>
        <time>2020-05-23T09:18:27Z</time>
      </trkpt>
      <trkpt lat="48.72389" lon="7.25883">
        <ele>393.2</ele>
        <time>2020-05-23T09:18:28Z</time>
      </trkpt>
      <trkpt lat="48.72392" lon="7.25884">
        <ele>393.4</ele>
        <time>2020-05-23T09:18:29Z</time>
      </trkpt>
      <trkpt lat="48.72396" lon="7.25883">
        <ele>393.7</ele>
        <time>2020-05-23T09:18:31Z</time>
      </trkpt>
      <trkpt lat="48.724" lon="7.25883">
        <ele>394</ele>
        <time>2020-05-23T09:18:33Z</time>
      </trkpt>
      <trkpt lat="48.72405" lon="7.25882">
        <ele>394.3</ele>
        <time>2020-05-23T09:18:35Z</time>
      </trkpt>
      <trkpt lat="48.72408" lon="7.25881">
        <ele>394.6</ele>
        <time>2020-05-23T09:18:37Z</time>
      </trkpt>
      <trkpt lat="48.72413" lon="7.25879">
        <ele>394.9</ele>
        <time>2020-05-23T09:18:39Z</time>
      </trkpt>
      <trkpt lat="48.72416" lon="7.25879">
        <ele>395.1</ele>
        <time>2020-05-23T09:18:40Z</time>
      </trkpt>
      <trkpt lat="48.72422" lon="7.25879">
        <ele>395.4</ele>
        <time>2020-05-23T09:18:42Z</time>
      </trkpt>
      <trkpt lat="48.72428" lon="7.2588">
        <ele>395.7</ele>
        <time>2020-05-23T09:18:44Z</time>
      </trkpt>
      <trkpt lat="48.72433" lon="7.25882">
        <ele>395.9</ele>
        <time>2020-05-23T09:18:46Z</time>
      </trkpt>
      <trkpt lat="48.72439" lon="7.25884">
        <ele>396.1</ele>
        <time>2020-05-23T09:18:48Z</time>
      </trkpt>
      <trkpt lat="48.72441" lon="7.25885">
        <ele>396.2</ele>
        <time>2020-05-23T09:18:49Z</time>
      </trkpt>
      <trkpt lat="48.72446" lon="7.25887">
        <ele>396.4</ele>
        <time>2020-05-23T09:18:51Z</time>
      </trkpt>
      <trkpt lat="48.7245" lon="7.25885">
        <ele>396.6</ele>
        <time>2020-05-23T09:18:53Z</time>
      </trkpt>
      <trkpt lat="48.72453" lon="7.25883">
        <ele>396.7</ele>
        <time>2020-05-23T09:18:54Z</time>
      </trkpt>
      <trkpt lat="48.72457" lon="7.25879">
        <ele>396.9</ele>
        <time>2020-05-23T09:18:56Z</time>
      </trkpt>
      <trkpt lat="48.7246" lon="7.25877">
        <ele>397</ele>
        <time>2020-05-23T09:18:57Z</time>
      </trkpt>
      <trkpt lat="48.72461" lon="7.25877">
        <ele>397</ele>
        <time>2020-05-23T09:18:58Z</time>
      </trkpt>
      <trkpt lat="48.72468" lon="7.25873">
        <ele>397.1</ele>
        <time>2020-05-23T09:19:00Z</time>
      </trkpt>
      <trkpt lat="48.72474" lon="7.25871">
        <ele>397.1</ele>
        <time>2020-05-23T09:19:02Z</time>
      </trkpt>
      <trkpt lat="48.72477" lon="7.25868">
        <ele>397.1</ele>
        <time>2020-05-23T09:19:03Z</time>
      </trkpt>
      <trkpt lat="48.72483" lon="7.25862">
        <ele>397.2</ele>
        <time>2020-05-23T09:19:05Z</time>
      </trkpt>
      <trkpt lat="48.72487" lon="7.25859">
        <ele>397.2</ele>
        <time>2020-05-23T09:19:06Z</time>
      </trkpt>
      <trkpt lat="48.72491" lon="7.25856">
        <ele>397.2</ele>
        <time>2020-05-23T09:19:07Z</time>
      </trkpt>
      <trkpt lat="48.72498" lon="7.25851">
        <ele>397.3</ele>
        <time>2020-05-23T09:19:09Z</time>
      </trkpt>
      <trkpt lat="48.72502" lon="7.25848">
        <ele>397.3</ele>
        <time>2020-05-23T09:19:11Z</time>
      </trkpt>
      <trkpt lat="48.72508" lon="7.25846">
        <ele>397.3</ele>
        <time>2020-05-23T09:19:13Z</time>
      </trkpt>
      <trkpt lat="48.72512" lon="7.25844">
        <ele>397.3</ele>
        <time>2020-05-23T09:19:14Z</time>
      </trkpt>
      <trkpt lat="48.72514" lon="7.25843">
        <ele>397.3</ele>
        <time>2020-05-23T09:19:15Z</time>
      </trkpt>
      <trkpt lat="48.72522" lon="7.25839">
        <ele>397.4</ele>
        <time>2020-05-23T09:19:17Z</time>
      </trkpt>
      <trkpt lat="48.72525" lon="7.25838">
        <ele>397.4</ele>
        <time>2020-05-23T09:19:18Z</time>
      </trkpt>
      <trkpt lat="48.72531" lon="7.25835">
        <ele>397.4</ele>
        <time>2020-05-23T09:19:20Z</time>
      </trkpt>
      <trkpt lat="48.72536" lon="7.2583">
        <ele>397.3</ele>
        <time>2020-05-23T09:19:22Z</time>
      </trkpt>
      <trkpt lat="48.72543" lon="7.25826">
        <ele>397.3</ele>
        <time>2020-05-23T09:19:24Z</time>
      </trkpt>
      <trkpt lat="48.72547" lon="7.25825">
        <ele>397.3</ele>
        <time>2020-05-23T09:19:25Z</time>
      </trkpt>
      <trkpt lat="48.72551" lon="7.25824">
        <ele>397.3</ele>
        <time>2020-05-23T09:19:26Z</time>
      </trkpt>
      <trkpt lat="48.72555" lon="7.25823">
        <ele>397.3</ele>
        <time>2020-05-23T09:19:27Z</time>
      </trkpt>
      <trkpt lat="48.72562" lon="7.25819">
        <ele>397.1</ele>
        <time>2020-05-23T09:19:29Z</time>
      </trkpt>
      <trkpt lat="48.7257" lon="7.25816">
        <ele>397</ele>
        <time>2020-05-23T09:19:31Z</time>
      </trkpt>
      <trkpt lat="48.72578" lon="7.25815">
        <ele>396.7</ele>
        <time>2020-05-23T09:19:33Z</time>
      </trkpt>
      <trkpt lat="48.72582" lon="7.25815">
        <ele>396.5</ele>
        <time>2020-05-23T09:19:34Z</time>
      </trkpt>
      <trkpt lat="48.7259" lon="7.25817">
        <ele>396.1</ele>
        <time>2020-05-23T09:19:36Z</time>
      </trkpt>
      <trkpt lat="48.72593" lon="7.25817">
        <ele>396</ele>
        <time>2020-05-23T09:19:37Z</time>
      </trkpt>
      <trkpt lat="48.72601" lon="7.25816">
        <ele>395.6</ele>
        <time>2020-05-23T09:19:39Z</time>
      </trkpt>
      <trkpt lat="48.72606" lon="7.25816">
        <ele>395.3</ele>
        <time>2020-05-23T09:19:40Z</time>
      </trkpt>
      <trkpt lat="48.72613" lon="7.25816">
        <ele>394.9</ele>
        <time>2020-05-23T09:19:42Z</time>
      </trkpt>
      <trkpt lat="48.7262" lon="7.25816">
        <ele>394.5</ele>
        <time>2020-05-23T09:19:43Z</time>
      </trkpt>
      <trkpt lat="48.72626" lon="7.25817">
        <ele>394.2</ele>
        <time>2020-05-23T09:19:44Z</time>
      </trkpt>
      <trkpt lat="48.72631" lon="7.25818">
        <ele>393.9</ele>
        <time>2020-05-23T09:19:45Z</time>
      </trkpt>
      <trkpt lat="48.72642" lon="7.2582">
        <ele>393.4</ele>
        <time>2020-05-23T09:19:47Z</time>
      </trkpt>
      <trkpt lat="48.72652" lon="7.2582">
        <ele>392.7</ele>
        <time>2020-05-23T09:19:49Z</time>
      </trkpt>
      <trkpt lat="48.72663" lon="7.25819">
        <ele>391.9</ele>
        <time>2020-05-23T09:19:51Z</time>
      </trkpt>
      <trkpt lat="48.72667" lon="7.25819">
        <ele>391.5</ele>
        <time>2020-05-23T09:19:52Z</time>
      </trkpt>
      <trkpt lat="48.7267" lon="7.25819">
        <ele>391.1</ele>
        <time>2020-05-23T09:19:53Z</time>
      </trkpt>
      <trkpt lat="48.72678" lon="7.25819">
        <ele>390.3</ele>
        <time>2020-05-23T09:19:55Z</time>
      </trkpt>
      <trkpt lat="48.72682" lon="7.25819">
        <ele>389.7</ele>
        <time>2020-05-23T09:19:56Z</time>
      </trkpt>
      <trkpt lat="48.72691" lon="7.25818">
        <ele>388.7</ele>
        <time>2020-05-23T09:19:58Z</time>
      </trkpt>
      <trkpt lat="48.72704" lon="7.25818">
        <ele>387.3</ele>
        <time>2020-05-23T09:20:00Z</time>
      </trkpt>
      <trkpt lat="48.72712" lon="7.25818">
        <ele>386.3</ele>
        <time>2020-05-23T09:20:01Z</time>
      </trkpt>
      <trkpt lat="48.72719" lon="7.25818">
        <ele>385.6</ele>
        <time>2020-05-23T09:20:02Z</time>
      </trkpt>
      <trkpt lat="48.72729" lon="7.25819">
        <ele>384.5</ele>
        <time>2020-05-23T09:20:04Z</time>
      </trkpt>
      <trkpt lat="48.72734" lon="7.2582">
        <ele>383.9</ele>
        <time>2020-05-23T09:20:05Z</time>
      </trkpt>
      <trkpt lat="48.72744" lon="7.25822">
        <ele>383.1</ele>
        <time>2020-05-23T09:20:07Z</time>
      </trkpt>
      <trkpt lat="48.72753" lon="7.25822">
        <ele>382.3</ele>
        <time>2020-05-23T09:20:09Z</time>
      </trkpt>
      <trkpt lat="48.72757" lon="7.25823">
        <ele>382</ele>
        <time>2020-05-23T09:20:10Z</time>
      </trkpt>
      <trkpt lat="48.72766" lon="7.25823">
        <ele>381.4</ele>
        <time>2020-05-23T09:20:12Z</time>
      </trkpt>
      <trkpt lat="48.7277" lon="7.25827">
        <ele>381.1</ele>
        <time>2020-05-23T09:20:14Z</time>
      </trkpt>
      <trkpt lat="48.72772" lon="7.2583">
        <ele>380.9</ele>
        <time>2020-05-23T09:20:15Z</time>
      </trkpt>
      <trkpt lat="48.72773" lon="7.25831">
        <ele>380.9</ele>
        <time>2020-05-23T09:20:16Z</time>
      </trkpt>
      <trkpt lat="48.7278" lon="7.25833">
        <ele>380.5</ele>
        <time>2020-05-23T09:20:18Z</time>
      </trkpt>
      <trkpt lat="48.72788" lon="7.25833">
        <ele>380.2</ele>
        <time>2020-05-23T09:20:20Z</time>
      </trkpt>
      <trkpt lat="48.72791" lon="7.25831">
        <ele>380</ele>
        <time>2020-05-23T09:20:21Z</time>
      </trkpt>
      <trkpt lat="48.72797" lon="7.25825">
        <ele>379.7</ele>
        <time>2020-05-23T09:20:23Z</time>
      </trkpt>
      <trkpt lat="48.72807" lon="7.25821">
        <ele>379.3</ele>
        <time>2020-05-23T09:20:25Z</time>
      </trkpt>
      <trkpt lat="48.7282" lon="7.25823">
        <ele>378.3</ele>
        <time>2020-05-23T09:20:27Z</time>
      </trkpt>
      <trkpt lat="48.72829" lon="7.25824">
        <ele>377.5</ele>
        <time>2020-05-23T09:20:28Z</time>
      </trkpt>
      <trkpt lat="48.72836" lon="7.25824">
        <ele>376.8</ele>
        <time>2020-05-23T09:20:29Z</time>
      </trkpt>
      <trkpt lat="48.72849" lon="7.25823">
        <ele>375.8</ele>
        <time>2020-05-23T09:20:31Z</time>
      </trkpt>
      <trkpt lat="48.72861" lon="7.25823">
        <ele>374.9</ele>
        <time>2020-05-23T09:20:33Z</time>
      </trkpt>
      <trkpt lat="48.7287" lon="7.25823">
        <ele>374.3</ele>
        <time>2020-05-23T09:20:35Z</time>
      </trkpt>
      <trkpt lat="48.72874" lon="7.25824">
        <ele>374</ele>
        <time>2020-05-23T09:20:36Z</time>
      </trkpt>
      <trkpt lat="48.72879" lon="7.25825">
        <ele>373.7</ele>
        <time>2020-05-23T09:20:37Z</time>
      </trkpt>
      <trkpt lat="48.72886" lon="7.25827">
        <ele>373.3</ele>
        <time>2020-05-23T09:20:38Z</time>
      </trkpt>
      <trkpt lat="48.72892" lon="7.25829">
        <ele>372.9</ele>
        <time>2020-05-23T09:20:39Z</time>
      </trkpt>
      <trkpt lat="48.72898" lon="7.2583">
        <ele>372.6</ele>
        <time>2020-05-23T09:20:41Z</time>
      </trkpt>
      <trkpt lat="48.72899" lon="7.2583">
        <ele>372.5</ele>
        <time>2020-05-23T09:20:43Z</time>
      </trkpt>
      <trkpt lat="48.72899" lon="7.2583">
        <ele>372.5</ele>
        <time>2020-05-23T09:20:44Z</time>
      </trkpt>
      <trkpt lat="48.72901" lon="7.2583">
        <ele>372.4</ele>
        <time>2020-05-23T09:20:46Z</time>
      </trkpt>
      <trkpt lat="48.72901" lon="7.25829">
        <ele>372.3</ele>
        <time>2020-05-23T09:20:49Z</time>
      </trkpt>
      <trkpt lat="48.729" lon="7.25829">
        <ele>372.3</ele>
        <time>2020-05-23T09:20:50Z</time>
      </trkpt>
      <trkpt lat="48.729" lon="7.25829">
        <ele>372.3</ele>
        <time>2020-05-23T09:20:51Z</time>
      </trkpt>
      <trkpt lat="48.72901" lon="7.25829">
        <ele>372.2</ele>
        <time>2020-05-23T09:20:53Z</time>
      </trkpt>
      <trkpt lat="48.72901" lon="7.25829">
        <ele>372.1</ele>
        <time>2020-05-23T09:20:55Z</time>
      </trkpt>
      <trkpt lat="48.72902" lon="7.25828">
        <ele>372.1</ele>
        <time>2020-05-23T09:20:56Z</time>
      </trkpt>
      <trkpt lat="48.72903" lon="7.25827">
        <ele>372</ele>
        <time>2020-05-23T09:20:57Z</time>
      </trkpt>
      <trkpt lat="48.72908" lon="7.25825">
        <ele>371.7</ele>
        <time>2020-05-23T09:20:59Z</time>
      </trkpt>
      <trkpt lat="48.72912" lon="7.25825">
        <ele>371.4</ele>
        <time>2020-05-23T09:21:00Z</time>
      </trkpt>
      <trkpt lat="48.72918" lon="7.25822">
        <ele>370.9</ele>
        <time>2020-05-23T09:21:02Z</time>
      </trkpt>
      <trkpt lat="48.72925" lon="7.25818">
        <ele>370.2</ele>
        <time>2020-05-23T09:21:04Z</time>
      </trkpt>
      <trkpt lat="48.72933" lon="7.25814">
        <ele>369.5</ele>
        <time>2020-05-23T09:21:06Z</time>
      </trkpt>
      <trkpt lat="48.72942" lon="7.25808">
        <ele>368.5</ele>
        <time>2020-05-23T09:21:08Z</time>
      </trkpt>
      <trkpt lat="48.72948" lon="7.25805">
        <ele>367.9</ele>
        <time>2020-05-23T09:21:09Z</time>
      </trkpt>
      <trkpt lat="48.72953" lon="7.25802">
        <ele>367.4</ele>
        <time>2020-05-23T09:21:10Z</time>
      </trkpt>
      <trkpt lat="48.72955" lon="7.258">
        <ele>367.2</ele>
        <time>2020-05-23T09:21:11Z</time>
      </trkpt>
      <trkpt lat="48.72962" lon="7.25794">
        <ele>366.4</ele>
        <time>2020-05-23T09:21:13Z</time>
      </trkpt>
      <trkpt lat="48.72966" lon="7.2579">
        <ele>366</ele>
        <time>2020-05-23T09:21:14Z</time>
      </trkpt>
      <trkpt lat="48.72972" lon="7.25786">
        <ele>365.3</ele>
        <time>2020-05-23T09:21:16Z</time>
      </trkpt>
      <trkpt lat="48.72977" lon="7.25781">
        <ele>364.7</ele>
        <time>2020-05-23T09:21:18Z</time>
      </trkpt>
      <trkpt lat="48.7298" lon="7.25776">
        <ele>364.2</ele>
        <time>2020-05-23T09:21:19Z</time>
      </trkpt>
      <trkpt lat="48.72987" lon="7.2577">
        <ele>363.2</ele>
        <time>2020-05-23T09:21:21Z</time>
      </trkpt>
      <trkpt lat="48.72991" lon="7.25766">
        <ele>362.5</ele>
        <time>2020-05-23T09:21:23Z</time>
      </trkpt>
      <trkpt lat="48.72995" lon="7.25759">
        <ele>361.5</ele>
        <time>2020-05-23T09:21:25Z</time>
      </trkpt>
      <trkpt lat="48.72998" lon="7.25755">
        <ele>360.8</ele>
        <time>2020-05-23T09:21:26Z</time>
      </trkpt>
      <trkpt lat="48.73003" lon="7.2575">
        <ele>359.8</ele>
        <time>2020-05-23T09:21:28Z</time>
      </trkpt>
      <trkpt lat="48.73006" lon="7.25747">
        <ele>359.1</ele>
        <time>2020-05-23T09:21:29Z</time>
      </trkpt>
      <trkpt lat="48.73007" lon="7.25745">
        <ele>358.8</ele>
        <time>2020-05-23T09:21:30Z</time>
      </trkpt>
      <trkpt lat="48.73014" lon="7.2574">
        <ele>357.4</ele>
        <time>2020-05-23T09:21:32Z</time>
      </trkpt>
      <trkpt lat="48.73022" lon="7.25733">
        <ele>355.9</ele>
        <time>2020-05-23T09:21:34Z</time>
      </trkpt>
      <trkpt lat="48.73025" lon="7.2573">
        <ele>355.2</ele>
        <time>2020-05-23T09:21:35Z</time>
      </trkpt>
      <trkpt lat="48.73029" lon="7.25726">
        <ele>354.5</ele>
        <time>2020-05-23T09:21:36Z</time>
      </trkpt>
      <trkpt lat="48.73031" lon="7.25722">
        <ele>353.9</ele>
        <time>2020-05-23T09:21:37Z</time>
      </trkpt>
      <trkpt lat="48.73034" lon="7.25719">
        <ele>353.5</ele>
        <time>2020-05-23T09:21:38Z</time>
      </trkpt>
      <trkpt lat="48.73037" lon="7.25715">
        <ele>352.8</ele>
        <time>2020-05-23T09:21:40Z</time>
      </trkpt>
      <trkpt lat="48.73041" lon="7.2571">
        <ele>352.1</ele>
        <time>2020-05-23T09:21:42Z</time>
      </trkpt>
      <trkpt lat="48.73043" lon="7.25707">
        <ele>351.7</ele>
        <time>2020-05-23T09:21:43Z</time>
      </trkpt>
      <trkpt lat="48.73048" lon="7.257">
        <ele>350.7</ele>
        <time>2020-05-23T09:21:45Z</time>
      </trkpt>
      <trkpt lat="48.73051" lon="7.25694">
        <ele>349.9</ele>
        <time>2020-05-23T09:21:47Z</time>
      </trkpt>
      <trkpt lat="48.73053" lon="7.25691">
        <ele>349.4</ele>
        <time>2020-05-23T09:21:48Z</time>
      </trkpt>
      <trkpt lat="48.73055" lon="7.25688">
        <ele>349</ele>
        <time>2020-05-23T09:21:49Z</time>
      </trkpt>
      <trkpt lat="48.73059" lon="7.25683">
        <ele>348.2</ele>
        <time>2020-05-23T09:21:51Z</time>
      </trkpt>
      <trkpt lat="48.73061" lon="7.2568">
        <ele>347.7</ele>
        <time>2020-05-23T09:21:53Z</time>
      </trkpt>
      <trkpt lat="48.73064" lon="7.25678">
        <ele>347.3</ele>
        <time>2020-05-23T09:21:54Z</time>
      </trkpt>
      <trkpt lat="48.73067" lon="7.25674">
        <ele>346.5</ele>
        <time>2020-05-23T09:21:56Z</time>
      </trkpt>
      <trkpt lat="48.7307" lon="7.25667">
        <ele>345.7</ele>
        <time>2020-05-23T09:21:58Z</time>
      </trkpt>
      <trkpt lat="48.73071" lon="7.25664">
        <ele>345.1</ele>
        <time>2020-05-23T09:21:59Z</time>
      </trkpt>
      <trkpt lat="48.73073" lon="7.2566">
        <ele>344.5</ele>
        <time>2020-05-23T09:22:00Z</time>
      </trkpt>
      <trkpt lat="48.73079" lon="7.25653">
        <ele>343.1</ele>
        <time>2020-05-23T09:22:02Z</time>
      </trkpt>
      <trkpt lat="48.73081" lon="7.25651">
        <ele>342.5</ele>
        <time>2020-05-23T09:22:03Z</time>
      </trkpt>
      <trkpt lat="48.73083" lon="7.25647">
        <ele>341.8</ele>
        <time>2020-05-23T09:22:04Z</time>
      </trkpt>
      <trkpt lat="48.73085" lon="7.25644">
        <ele>341.3</ele>
        <time>2020-05-23T09:22:05Z</time>
      </trkpt>
      <trkpt lat="48.73086" lon="7.25641">
        <ele>340.7</ele>
        <time>2020-05-23T09:22:06Z</time>
      </trkpt>
      <trkpt lat="48.73089" lon="7.25635">
        <ele>339.8</ele>
        <time>2020-05-23T09:22:08Z</time>
      </trkpt>
      <trkpt lat="48.73093" lon="7.25629">
        <ele>338.7</ele>
        <time>2020-05-23T09:22:10Z</time>
      </trkpt>
      <trkpt lat="48.73097" lon="7.25621">
        <ele>336.6</ele>
        <time>2020-05-23T09:22:12Z</time>
      </trkpt>
      <trkpt lat="48.73099" lon="7.25615">
        <ele>335.8</ele>
        <time>2020-05-23T09:22:14Z</time>
      </trkpt>
      <trkpt lat="48.73103" lon="7.25608">
        <ele>334.8</ele>
        <time>2020-05-23T09:22:16Z</time>
      </trkpt>
      <trkpt lat="48.73106" lon="7.25603">
        <ele>333.9</ele>
        <time>2020-05-23T09:22:18Z</time>
      </trkpt>
      <trkpt lat="48.73109" lon="7.25601">
        <ele>333.5</ele>
        <time>2020-05-23T09:22:20Z</time>
      </trkpt>
      <trkpt lat="48.73113" lon="7.25601">
        <ele>332.7</ele>
        <time>2020-05-23T09:22:22Z</time>
      </trkpt>
      <trkpt lat="48.73119" lon="7.25598">
        <ele>331.7</ele>
        <time>2020-05-23T09:22:24Z</time>
      </trkpt>
      <trkpt lat="48.73121" lon="7.25595">
        <ele>331.1</ele>
        <time>2020-05-23T09:22:25Z</time>
      </trkpt>
      <trkpt lat="48.73121" lon="7.25594">
        <ele>330.9</ele>
        <time>2020-05-23T09:22:26Z</time>
      </trkpt>
      <trkpt lat="48.73124" lon="7.2559">
        <ele>330.3</ele>
        <time>2020-05-23T09:22:28Z</time>
      </trkpt>
      <trkpt lat="48.73126" lon="7.25588">
        <ele>329.9</ele>
        <time>2020-05-23T09:22:29Z</time>
      </trkpt>
      <trkpt lat="48.7313" lon="7.25584">
        <ele>329</ele>
        <time>2020-05-23T09:22:31Z</time>
      </trkpt>
      <trkpt lat="48.73135" lon="7.25582">
        <ele>328.1</ele>
        <time>2020-05-23T09:22:33Z</time>
      </trkpt>
      <trkpt lat="48.73137" lon="7.25581">
        <ele>327.6</ele>
        <time>2020-05-23T09:22:34Z</time>
      </trkpt>
      <trkpt lat="48.73143" lon="7.25582">
        <ele>326.6</ele>
        <time>2020-05-23T09:22:36Z</time>
      </trkpt>
      <trkpt lat="48.73145" lon="7.25582">
        <ele>326.2</ele>
        <time>2020-05-23T09:22:37Z</time>
      </trkpt>
      <trkpt lat="48.73148" lon="7.25579">
        <ele>325.5</ele>
        <time>2020-05-23T09:22:39Z</time>
      </trkpt>
      <trkpt lat="48.73149" lon="7.25578">
        <ele>325.2</ele>
        <time>2020-05-23T09:22:40Z</time>
      </trkpt>
      <trkpt lat="48.73151" lon="7.25577">
        <ele>324.7</ele>
        <time>2020-05-23T09:22:42Z</time>
      </trkpt>
      <trkpt lat="48.73153" lon="7.25575">
        <ele>324.3</ele>
        <time>2020-05-23T09:22:43Z</time>
      </trkpt>
      <trkpt lat="48.73154" lon="7.25573">
        <ele>323.8</ele>
        <time>2020-05-23T09:22:45Z</time>
      </trkpt>
      <trkpt lat="48.73157" lon="7.25571">
        <ele>323</ele>
        <time>2020-05-23T09:22:47Z</time>
      </trkpt>
      <trkpt lat="48.73159" lon="7.25571">
        <ele>322.6</ele>
        <time>2020-05-23T09:22:48Z</time>
      </trkpt>
      <trkpt lat="48.73163" lon="7.25568">
        <ele>321.7</ele>
        <time>2020-05-23T09:22:50Z</time>
      </trkpt>
      <trkpt lat="48.73167" lon="7.25567">
        <ele>320.7</ele>
        <time>2020-05-23T09:22:52Z</time>
      </trkpt>
      <trkpt lat="48.73169" lon="7.25567">
        <ele>320.2</ele>
        <time>2020-05-23T09:22:53Z</time>
      </trkpt>
      <trkpt lat="48.7317" lon="7.25567">
        <ele>320</ele>
        <time>2020-05-23T09:22:55Z</time>
      </trkpt>
      <trkpt lat="48.73171" lon="7.25567">
        <ele>319.8</ele>
        <time>2020-05-23T09:22:56Z</time>
      </trkpt>
      <trkpt lat="48.73174" lon="7.25568">
        <ele>319.2</ele>
        <time>2020-05-23T09:22:58Z</time>
      </trkpt>
      <trkpt lat="48.73175" lon="7.25569">
        <ele>318.9</ele>
        <time>2020-05-23T09:22:59Z</time>
      </trkpt>
      <trkpt lat="48.7318" lon="7.25571">
        <ele>318</ele>
        <time>2020-05-23T09:23:01Z</time>
      </trkpt>
      <trkpt lat="48.73183" lon="7.25569">
        <ele>317.4</ele>
        <time>2020-05-23T09:23:03Z</time>
      </trkpt>
      <trkpt lat="48.73185" lon="7.25564">
        <ele>316.7</ele>
        <time>2020-05-23T09:23:05Z</time>
      </trkpt>
      <trkpt lat="48.73188" lon="7.25559">
        <ele>315.8</ele>
        <time>2020-05-23T09:23:07Z</time>
      </trkpt>
      <trkpt lat="48.7319" lon="7.25556">
        <ele>315.5</ele>
        <time>2020-05-23T09:23:08Z</time>
      </trkpt>
      <trkpt lat="48.73192" lon="7.25552">
        <ele>314.8</ele>
        <time>2020-05-23T09:23:10Z</time>
      </trkpt>
      <trkpt lat="48.73193" lon="7.25549">
        <ele>314.4</ele>
        <time>2020-05-23T09:23:11Z</time>
      </trkpt>
      <trkpt lat="48.73197" lon="7.25544">
        <ele>313.7</ele>
        <time>2020-05-23T09:23:13Z</time>
      </trkpt>
      <trkpt lat="48.73199" lon="7.25536">
        <ele>312.8</ele>
        <time>2020-05-23T09:23:15Z</time>
      </trkpt>
      <trkpt lat="48.732" lon="7.2553">
        <ele>312.2</ele>
        <time>2020-05-23T09:23:16Z</time>
      </trkpt>
      <trkpt lat="48.73201" lon="7.2552">
        <ele>311.4</ele>
        <time>2020-05-23T09:23:18Z</time>
      </trkpt>
      <trkpt lat="48.73201" lon="7.25518">
        <ele>311.2</ele>
        <time>2020-05-23T09:23:19Z</time>
      </trkpt>
      <trkpt lat="48.73203" lon="7.2551">
        <ele>310.6</ele>
        <time>2020-05-23T09:23:21Z</time>
      </trkpt>
      <trkpt lat="48.73204" lon="7.25504">
        <ele>310.1</ele>
        <time>2020-05-23T09:23:22Z</time>
      </trkpt>
      <trkpt lat="48.73206" lon="7.25492">
        <ele>309.2</ele>
        <time>2020-05-23T09:23:24Z</time>
      </trkpt>
      <trkpt lat="48.73208" lon="7.25484">
        <ele>308.4</ele>
        <time>2020-05-23T09:23:26Z</time>
      </trkpt>
      <trkpt lat="48.73211" lon="7.25478">
        <ele>307.9</ele>
        <time>2020-05-23T09:23:28Z</time>
      </trkpt>
      <trkpt lat="48.73213" lon="7.25473">
        <ele>307.3</ele>
        <time>2020-05-23T09:23:30Z</time>
      </trkpt>
      <trkpt lat="48.73215" lon="7.25469">
        <ele>307.2</ele>
        <time>2020-05-23T09:23:31Z</time>
      </trkpt>
      <trkpt lat="48.73216" lon="7.25468">
        <ele>307.1</ele>
        <time>2020-05-23T09:23:32Z</time>
      </trkpt>
      <trkpt lat="48.73218" lon="7.25465">
        <ele>307</ele>
        <time>2020-05-23T09:23:33Z</time>
      </trkpt>
      <trkpt lat="48.7322" lon="7.25455">
        <ele>306.5</ele>
        <time>2020-05-23T09:23:35Z</time>
      </trkpt>
      <trkpt lat="48.73221" lon="7.25445">
        <ele>306.1</ele>
        <time>2020-05-23T09:23:37Z</time>
      </trkpt>
      <trkpt lat="48.73221" lon="7.25441">
        <ele>306</ele>
        <time>2020-05-23T09:23:38Z</time>
      </trkpt>
      <trkpt lat="48.73221" lon="7.25434">
        <ele>305.7</ele>
        <time>2020-05-23T09:23:40Z</time>
      </trkpt>
      <trkpt lat="48.73222" lon="7.2543">
        <ele>304.6</ele>
        <time>2020-05-23T09:23:41Z</time>
      </trkpt>
      <trkpt lat="48.73223" lon="7.25428">
        <ele>304.5</ele>
        <time>2020-05-23T09:23:42Z</time>
      </trkpt>
      <trkpt lat="48.73226" lon="7.25424">
        <ele>304.1</ele>
        <time>2020-05-23T09:23:44Z</time>
      </trkpt>
      <trkpt lat="48.73228" lon="7.25423">
        <ele>304</ele>
        <time>2020-05-23T09:23:45Z</time>
      </trkpt>
      <trkpt lat="48.7323" lon="7.25423">
        <ele>303.8</ele>
        <time>2020-05-23T09:23:47Z</time>
      </trkpt>
      <trkpt lat="48.73231" lon="7.25425">
        <ele>303.7</ele>
        <time>2020-05-23T09:23:48Z</time>
      </trkpt>
      <trkpt lat="48.73232" lon="7.25426">
        <ele>303.6</ele>
        <time>2020-05-23T09:23:50Z</time>
      </trkpt>
      <trkpt lat="48.73232" lon="7.25427">
        <ele>303.5</ele>
        <time>2020-05-23T09:23:51Z</time>
      </trkpt>
      <trkpt lat="48.73233" lon="7.25427">
        <ele>303.5</ele>
        <time>2020-05-23T09:23:52Z</time>
      </trkpt>
      <trkpt lat="48.73233" lon="7.25427">
        <ele>303.5</ele>
        <time>2020-05-23T09:23:54Z</time>
      </trkpt>
      <trkpt lat="48.73234" lon="7.25428">
        <ele>303.4</ele>
        <time>2020-05-23T09:23:56Z</time>
      </trkpt>
      <trkpt lat="48.73235" lon="7.25427">
        <ele>303.2</ele>
        <time>2020-05-23T09:23:58Z</time>
      </trkpt>
      <trkpt lat="48.73236" lon="7.25426">
        <ele>303.2</ele>
        <time>2020-05-23T09:23:59Z</time>
      </trkpt>
      <trkpt lat="48.73237" lon="7.25425">
        <ele>303</ele>
        <time>2020-05-23T09:24:01Z</time>
      </trkpt>
      <trkpt lat="48.73238" lon="7.25424">
        <ele>303</ele>
        <time>2020-05-23T09:24:02Z</time>
      </trkpt>
      <trkpt lat="48.73238" lon="7.25424">
        <ele>302.9</ele>
        <time>2020-05-23T09:24:03Z</time>
      </trkpt>
      <trkpt lat="48.7324" lon="7.25423">
        <ele>302.8</ele>
        <time>2020-05-23T09:24:05Z</time>
      </trkpt>
      <trkpt lat="48.7324" lon="7.25422">
        <ele>302.7</ele>
        <time>2020-05-23T09:24:06Z</time>
      </trkpt>
      <trkpt lat="48.73242" lon="7.25421">
        <ele>302.6</ele>
        <time>2020-05-23T09:24:08Z</time>
      </trkpt>
      <trkpt lat="48.73244" lon="7.25416">
        <ele>302.2</ele>
        <time>2020-05-23T09:24:10Z</time>
      </trkpt>
      <trkpt lat="48.73245" lon="7.25414">
        <ele>302.1</ele>
        <time>2020-05-23T09:24:11Z</time>
      </trkpt>
      <trkpt lat="48.73246" lon="7.25412">
        <ele>302</ele>
        <time>2020-05-23T09:24:12Z</time>
      </trkpt>
      <trkpt lat="48.73249" lon="7.25407">
        <ele>301.6</ele>
        <time>2020-05-23T09:24:14Z</time>
      </trkpt>
      <trkpt lat="48.73251" lon="7.25405">
        <ele>301.4</ele>
        <time>2020-05-23T09:24:15Z</time>
      </trkpt>
      <trkpt lat="48.73253" lon="7.25403">
        <ele>301.2</ele>
        <time>2020-05-23T09:24:17Z</time>
      </trkpt>
      <trkpt lat="48.73255" lon="7.25399">
        <ele>300.9</ele>
        <time>2020-05-23T09:24:19Z</time>
      </trkpt>
      <trkpt lat="48.73255" lon="7.25398">
        <ele>300.8</ele>
        <time>2020-05-23T09:24:20Z</time>
      </trkpt>
      <trkpt lat="48.73257" lon="7.25395">
        <ele>300.6</ele>
        <time>2020-05-23T09:24:22Z</time>
      </trkpt>
      <trkpt lat="48.73258" lon="7.25393">
        <ele>300.4</ele>
        <time>2020-05-23T09:24:23Z</time>
      </trkpt>
      <trkpt lat="48.73262" lon="7.2539">
        <ele>300</ele>
        <time>2020-05-23T09:24:25Z</time>
      </trkpt>
      <trkpt lat="48.73264" lon="7.2539">
        <ele>299.8</ele>
        <time>2020-05-23T09:24:26Z</time>
      </trkpt>
      <trkpt lat="48.7327" lon="7.25389">
        <ele>299.3</ele>
        <time>2020-05-23T09:24:28Z</time>
      </trkpt>
      <trkpt lat="48.73272" lon="7.25388">
        <ele>299</ele>
        <time>2020-05-23T09:24:29Z</time>
      </trkpt>
      <trkpt lat="48.73278" lon="7.25383">
        <ele>298.3</ele>
        <time>2020-05-23T09:24:31Z</time>
      </trkpt>
      <trkpt lat="48.7328" lon="7.25379">
        <ele>298</ele>
        <time>2020-05-23T09:24:32Z</time>
      </trkpt>
      <trkpt lat="48.73282" lon="7.25376">
        <ele>297.6</ele>
        <time>2020-05-23T09:24:33Z</time>
      </trkpt>
      <trkpt lat="48.73284" lon="7.25373">
        <ele>297.4</ele>
        <time>2020-05-23T09:24:35Z</time>
      </trkpt>
      <trkpt lat="48.73284" lon="7.25373">
        <ele>297.4</ele>
        <time>2020-05-23T09:24:37Z</time>
      </trkpt>
      <trkpt lat="48.73284" lon="7.25373">
        <ele>297.3</ele>
        <time>2020-05-23T09:24:38Z</time>
      </trkpt>
      <trkpt lat="48.73284" lon="7.25374">
        <ele>297.3</ele>
        <time>2020-05-23T09:24:40Z</time>
      </trkpt>
      <trkpt lat="48.73284" lon="7.25374">
        <ele>297.3</ele>
        <time>2020-05-23T09:24:42Z</time>
      </trkpt>
      <trkpt lat="48.73284" lon="7.25374">
        <ele>297.3</ele>
        <time>2020-05-23T09:24:44Z</time>
      </trkpt>
      <trkpt lat="48.73284" lon="7.25374">
        <ele>297.3</ele>
        <time>2020-05-23T09:24:45Z</time>
      </trkpt>
      <trkpt lat="48.73285" lon="7.25373">
        <ele>297.1</ele>
        <time>2020-05-23T09:24:47Z</time>
      </trkpt>
      <trkpt lat="48.73287" lon="7.25372">
        <ele>297</ele>
        <time>2020-05-23T09:24:49Z</time>
      </trkpt>
      <trkpt lat="48.73287" lon="7.25372">
        <ele>297</ele>
        <time>2020-05-23T09:24:50Z</time>
      </trkpt>
      <trkpt lat="48.73287" lon="7.25372">
        <ele>296.9</ele>
        <time>2020-05-23T09:24:52Z</time>
      </trkpt>
      <trkpt lat="48.73288" lon="7.25372">
        <ele>296.9</ele>
        <time>2020-05-23T09:24:54Z</time>
      </trkpt>
      <trkpt lat="48.73288" lon="7.25372">
        <ele>296.9</ele>
        <time>2020-05-23T09:24:55Z</time>
      </trkpt>
      <trkpt lat="48.73287" lon="7.25372">
        <ele>296.8</ele>
        <time>2020-05-23T09:24:57Z</time>
      </trkpt>
      <trkpt lat="48.73287" lon="7.25372">
        <ele>296.8</ele>
        <time>2020-05-23T09:24:58Z</time>
      </trkpt>
      <trkpt lat="48.73287" lon="7.25372">
        <ele>296.8</ele>
        <time>2020-05-23T09:24:59Z</time>
      </trkpt>
      <trkpt lat="48.73287" lon="7.25372">
        <ele>296.8</ele>
        <time>2020-05-23T09:25:01Z</time>
      </trkpt>
      <trkpt lat="48.73287" lon="7.25372">
        <ele>296.8</ele>
        <time>2020-05-23T09:25:02Z</time>
      </trkpt>
      <trkpt lat="48.73288" lon="7.25372">
        <ele>296.8</ele>
        <time>2020-05-23T09:25:03Z</time>
      </trkpt>
      <trkpt lat="48.73288" lon="7.25371">
        <ele>296.7</ele>
        <time>2020-05-23T09:25:05Z</time>
      </trkpt>
      <trkpt lat="48.73287" lon="7.25371">
        <ele>296.6</ele>
        <time>2020-05-23T09:25:07Z</time>
      </trkpt>
      <trkpt lat="48.73287" lon="7.25371">
        <ele>296.6</ele>
        <time>2020-05-23T09:25:08Z</time>
      </trkpt>
      <trkpt lat="48.73287" lon="7.25371">
        <ele>296.6</ele>
        <time>2020-05-23T09:25:10Z</time>
      </trkpt>
      <trkpt lat="48.73288" lon="7.25371">
        <ele>296.5</ele>
        <time>2020-05-23T09:25:11Z</time>
      </trkpt>
      <trkpt lat="48.73289" lon="7.25371">
        <ele>296.4</ele>
        <time>2020-05-23T09:25:12Z</time>
      </trkpt>
      <trkpt lat="48.73291" lon="7.25368">
        <ele>296.1</ele>
        <time>2020-05-23T09:25:14Z</time>
      </trkpt>
      <trkpt lat="48.73293" lon="7.25363">
        <ele>295.7</ele>
        <time>2020-05-23T09:25:16Z</time>
      </trkpt>
      <trkpt lat="48.73294" lon="7.25358">
        <ele>295.3</ele>
        <time>2020-05-23T09:25:17Z</time>
      </trkpt>
      <trkpt lat="48.73294" lon="7.25356">
        <ele>295.2</ele>
        <time>2020-05-23T09:25:18Z</time>
      </trkpt>
      <trkpt lat="48.73293" lon="7.25351">
        <ele>294.8</ele>
        <time>2020-05-23T09:25:19Z</time>
      </trkpt>
      <trkpt lat="48.73291" lon="7.25344">
        <ele>294.2</ele>
        <time>2020-05-23T09:25:21Z</time>
      </trkpt>
      <trkpt lat="48.73288" lon="7.25341">
        <ele>293.9</ele>
        <time>2020-05-23T09:25:23Z</time>
      </trkpt>
      <trkpt lat="48.73288" lon="7.25342">
        <ele>293.8</ele>
        <time>2020-05-23T09:25:24Z</time>
      </trkpt>
      <trkpt lat="48.73287" lon="7.25343">
        <ele>293.6</ele>
        <time>2020-05-23T09:25:26Z</time>
      </trkpt>
      <trkpt lat="48.73286" lon="7.25343">
        <ele>293.6</ele>
        <time>2020-05-23T09:25:27Z</time>
      </trkpt>
      <trkpt lat="48.73286" lon="7.25344">
        <ele>293.6</ele>
        <time>2020-05-23T09:25:29Z</time>
      </trkpt>
      <trkpt lat="48.73287" lon="7.25344">
        <ele>293.5</ele>
        <time>2020-05-23T09:25:31Z</time>
      </trkpt>
      <trkpt lat="48.73287" lon="7.25344">
        <ele>293.5</ele>
        <time>2020-05-23T09:25:32Z</time>
      </trkpt>
      <trkpt lat="48.73287" lon="7.25343">
        <ele>293.5</ele>
        <time>2020-05-23T09:25:35Z</time>
      </trkpt>
      <trkpt lat="48.73287" lon="7.25344">
        <ele>293.4</ele>
        <time>2020-05-23T09:25:36Z</time>
      </trkpt>
      <trkpt lat="48.73287" lon="7.25344">
        <ele>293.3</ele>
        <time>2020-05-23T09:25:37Z</time>
      </trkpt>
      <trkpt lat="48.73288" lon="7.25344">
        <ele>293.3</ele>
        <time>2020-05-23T09:25:38Z</time>
      </trkpt>
      <trkpt lat="48.73288" lon="7.25344">
        <ele>293.3</ele>
        <time>2020-05-23T09:25:40Z</time>
      </trkpt>
      <trkpt lat="48.73288" lon="7.25344">
        <ele>293.3</ele>
        <time>2020-05-23T09:25:41Z</time>
      </trkpt>
      <trkpt lat="48.73288" lon="7.25344">
        <ele>293.2</ele>
        <time>2020-05-23T09:25:43Z</time>
      </trkpt>
      <trkpt lat="48.73288" lon="7.25344">
        <ele>293.2</ele>
        <time>2020-05-23T09:25:44Z</time>
      </trkpt>
      <trkpt lat="48.73288" lon="7.25343">
        <ele>293.2</ele>
        <time>2020-05-23T09:25:45Z</time>
      </trkpt>
      <trkpt lat="48.73288" lon="7.25343">
        <ele>293.2</ele>
        <time>2020-05-23T09:25:47Z</time>
      </trkpt>
      <trkpt lat="48.73286" lon="7.25334">
        <ele>292.4</ele>
        <time>2020-05-23T09:26:06Z</time>
      </trkpt>
      <trkpt lat="48.73287" lon="7.2533">
        <ele>292.1</ele>
        <time>2020-05-23T09:26:07Z</time>
      </trkpt>
      <trkpt lat="48.73291" lon="7.25329">
        <ele>291.6</ele>
        <time>2020-05-23T09:26:09Z</time>
      </trkpt>
      <trkpt lat="48.73294" lon="7.25333">
        <ele>292.4</ele>
        <time>2020-05-23T09:26:10Z</time>
      </trkpt>
      <trkpt lat="48.73295" lon="7.25334">
        <ele>292.5</ele>
        <time>2020-05-23T09:26:11Z</time>
      </trkpt>
      <trkpt lat="48.73297" lon="7.25337">
        <ele>292.8</ele>
        <time>2020-05-23T09:26:12Z</time>
      </trkpt>
      <trkpt lat="48.73298" lon="7.25344">
        <ele>293.4</ele>
        <time>2020-05-23T09:26:14Z</time>
      </trkpt>
      <trkpt lat="48.73299" lon="7.25348">
        <ele>293.7</ele>
        <time>2020-05-23T09:26:15Z</time>
      </trkpt>
      <trkpt lat="48.733" lon="7.25354">
        <ele>294.2</ele>
        <time>2020-05-23T09:26:17Z</time>
      </trkpt>
      <trkpt lat="48.733" lon="7.25357">
        <ele>294.4</ele>
        <time>2020-05-23T09:26:18Z</time>
      </trkpt>
      <trkpt lat="48.73298" lon="7.25364">
        <ele>294.9</ele>
        <time>2020-05-23T09:26:20Z</time>
      </trkpt>
      <trkpt lat="48.73297" lon="7.25372">
        <ele>295.6</ele>
        <time>2020-05-23T09:26:22Z</time>
      </trkpt>
      <trkpt lat="48.73296" lon="7.25375">
        <ele>295.8</ele>
        <time>2020-05-23T09:26:23Z</time>
      </trkpt>
      <trkpt lat="48.73295" lon="7.25382">
        <ele>296.3</ele>
        <time>2020-05-23T09:26:25Z</time>
      </trkpt>
      <trkpt lat="48.73294" lon="7.25383">
        <ele>296.4</ele>
        <time>2020-05-23T09:26:27Z</time>
      </trkpt>
      <trkpt lat="48.73295" lon="7.25381">
        <ele>296.6</ele>
        <time>2020-05-23T09:26:29Z</time>
      </trkpt>
      <trkpt lat="48.73295" lon="7.25381">
        <ele>296.6</ele>
        <time>2020-05-23T09:26:30Z</time>
      </trkpt>
      <trkpt lat="48.73295" lon="7.25381">
        <ele>296.6</ele>
        <time>2020-05-23T09:26:32Z</time>
      </trkpt>
      <trkpt lat="48.73295" lon="7.2538">
        <ele>296.6</ele>
        <time>2020-05-23T09:26:34Z</time>
      </trkpt>
      <trkpt lat="48.73295" lon="7.2538">
        <ele>296.6</ele>
        <time>2020-05-23T09:26:35Z</time>
      </trkpt>
      <trkpt lat="48.73295" lon="7.2538">
        <ele>296.7</ele>
        <time>2020-05-23T09:26:36Z</time>
      </trkpt>
      <trkpt lat="48.73295" lon="7.2538">
        <ele>296.7</ele>
        <time>2020-05-23T09:26:37Z</time>
      </trkpt>
      <trkpt lat="48.73295" lon="7.2538">
        <ele>296.7</ele>
        <time>2020-05-23T09:26:38Z</time>
      </trkpt>
      <trkpt lat="48.73295" lon="7.2538">
        <ele>296.7</ele>
        <time>2020-05-23T09:26:39Z</time>
      </trkpt>
      <trkpt lat="48.73292" lon="7.25385">
        <ele>297.2</ele>
        <time>2020-05-23T09:26:47Z</time>
      </trkpt>
      <trkpt lat="48.73287" lon="7.25387">
        <ele>297.7</ele>
        <time>2020-05-23T09:26:49Z</time>
      </trkpt>
      <trkpt lat="48.73285" lon="7.25387">
        <ele>297.9</ele>
        <time>2020-05-23T09:26:50Z</time>
      </trkpt>
      <trkpt lat="48.73281" lon="7.25389">
        <ele>298.4</ele>
        <time>2020-05-23T09:26:52Z</time>
      </trkpt>
      <trkpt lat="48.73276" lon="7.25389">
        <ele>298.8</ele>
        <time>2020-05-23T09:26:54Z</time>
      </trkpt>
      <trkpt lat="48.73273" lon="7.25389">
        <ele>299.2</ele>
        <time>2020-05-23T09:26:55Z</time>
      </trkpt>
      <trkpt lat="48.73272" lon="7.25389">
        <ele>299.3</ele>
        <time>2020-05-23T09:26:56Z</time>
      </trkpt>
      <trkpt lat="48.73267" lon="7.2539">
        <ele>299.7</ele>
        <time>2020-05-23T09:26:58Z</time>
      </trkpt>
      <trkpt lat="48.73264" lon="7.25392">
        <ele>300.1</ele>
        <time>2020-05-23T09:26:59Z</time>
      </trkpt>
      <trkpt lat="48.73263" lon="7.25392">
        <ele>300.2</ele>
        <time>2020-05-23T09:27:00Z</time>
      </trkpt>
      <trkpt lat="48.73259" lon="7.25395">
        <ele>300.6</ele>
        <time>2020-05-23T09:27:01Z</time>
      </trkpt>
      <trkpt lat="48.73258" lon="7.25396">
        <ele>300.7</ele>
        <time>2020-05-23T09:27:02Z</time>
      </trkpt>
      <trkpt lat="48.73256" lon="7.25398">
        <ele>301</ele>
        <time>2020-05-23T09:27:03Z</time>
      </trkpt>
      <trkpt lat="48.73254" lon="7.25401">
        <ele>301.2</ele>
        <time>2020-05-23T09:27:04Z</time>
      </trkpt>
      <trkpt lat="48.7325" lon="7.25407">
        <ele>301.7</ele>
        <time>2020-05-23T09:27:06Z</time>
      </trkpt>
      <trkpt lat="48.73245" lon="7.25413">
        <ele>302.3</ele>
        <time>2020-05-23T09:27:08Z</time>
      </trkpt>
      <trkpt lat="48.73241" lon="7.25418">
        <ele>302.7</ele>
        <time>2020-05-23T09:27:10Z</time>
      </trkpt>
      <trkpt lat="48.73235" lon="7.25423">
        <ele>303.3</ele>
        <time>2020-05-23T09:27:12Z</time>
      </trkpt>
      <trkpt lat="48.73233" lon="7.25424">
        <ele>303.5</ele>
        <time>2020-05-23T09:27:13Z</time>
      </trkpt>
      <trkpt lat="48.73228" lon="7.25424">
        <ele>303.9</ele>
        <time>2020-05-23T09:27:15Z</time>
      </trkpt>
      <trkpt lat="48.73226" lon="7.25426">
        <ele>304.2</ele>
        <time>2020-05-23T09:27:16Z</time>
      </trkpt>
      <trkpt lat="48.73225" lon="7.25427">
        <ele>304.3</ele>
        <time>2020-05-23T09:27:17Z</time>
      </trkpt>
      <trkpt lat="48.7322" lon="7.25433">
        <ele>304.8</ele>
        <time>2020-05-23T09:27:19Z</time>
      </trkpt>
      <trkpt lat="48.73217" lon="7.25437">
        <ele>305.2</ele>
        <time>2020-05-23T09:27:20Z</time>
      </trkpt>
      <trkpt lat="48.73214" lon="7.25438">
        <ele>305.4</ele>
        <time>2020-05-23T09:27:21Z</time>
      </trkpt>
      <trkpt lat="48.73207" lon="7.25439">
        <ele>306</ele>
        <time>2020-05-23T09:27:23Z</time>
      </trkpt>
      <trkpt lat="48.73204" lon="7.25439">
        <ele>306.2</ele>
        <time>2020-05-23T09:27:24Z</time>
      </trkpt>
      <trkpt lat="48.73197" lon="7.25437">
        <ele>306.4</ele>
        <time>2020-05-23T09:27:26Z</time>
      </trkpt>
      <trkpt lat="48.73194" lon="7.25433">
        <ele>306.6</ele>
        <time>2020-05-23T09:27:28Z</time>
      </trkpt>
      <trkpt lat="48.73191" lon="7.25427">
        <ele>306.1</ele>
        <time>2020-05-23T09:27:30Z</time>
      </trkpt>
      <trkpt lat="48.73186" lon="7.2542">
        <ele>305.5</ele>
        <time>2020-05-23T09:27:32Z</time>
      </trkpt>
      <trkpt lat="48.73183" lon="7.25417">
        <ele>305.1</ele>
        <time>2020-05-23T09:27:33Z</time>
      </trkpt>
      <trkpt lat="48.73181" lon="7.25414">
        <ele>304.8</ele>
        <time>2020-05-23T09:27:34Z</time>
      </trkpt>
      <trkpt lat="48.73178" lon="7.25411">
        <ele>304.3</ele>
        <time>2020-05-23T09:27:35Z</time>
      </trkpt>
      <trkpt lat="48.73177" lon="7.2541">
        <ele>304.2</ele>
        <time>2020-05-23T09:27:36Z</time>
      </trkpt>
      <trkpt lat="48.73176" lon="7.2541">
        <ele>304.1</ele>
        <time>2020-05-23T09:27:38Z</time>
      </trkpt>
      <trkpt lat="48.73176" lon="7.2541">
        <ele>304</ele>
        <time>2020-05-23T09:27:39Z</time>
      </trkpt>
      <trkpt lat="48.73175" lon="7.2541">
        <ele>303.9</ele>
        <time>2020-05-23T09:27:40Z</time>
      </trkpt>
      <trkpt lat="48.73174" lon="7.25409">
        <ele>303.7</ele>
        <time>2020-05-23T09:27:41Z</time>
      </trkpt>
      <trkpt lat="48.73172" lon="7.25408">
        <ele>303.4</ele>
        <time>2020-05-23T09:27:42Z</time>
      </trkpt>
      <trkpt lat="48.73171" lon="7.25407">
        <ele>303.1</ele>
        <time>2020-05-23T09:27:43Z</time>
      </trkpt>
      <trkpt lat="48.73172" lon="7.25402">
        <ele>302.5</ele>
        <time>2020-05-23T09:27:45Z</time>
      </trkpt>
      <trkpt lat="48.73173" lon="7.25401">
        <ele>302.4</ele>
        <time>2020-05-23T09:27:46Z</time>
      </trkpt>
      <trkpt lat="48.73175" lon="7.254">
        <ele>301.9</ele>
        <time>2020-05-23T09:27:48Z</time>
      </trkpt>
      <trkpt lat="48.73176" lon="7.254">
        <ele>301.7</ele>
        <time>2020-05-23T09:27:49Z</time>
      </trkpt>
      <trkpt lat="48.73178" lon="7.25401">
        <ele>301.4</ele>
        <time>2020-05-23T09:27:51Z</time>
      </trkpt>
      <trkpt lat="48.73178" lon="7.25401">
        <ele>301.4</ele>
        <time>2020-05-23T09:27:52Z</time>
      </trkpt>
      <trkpt lat="48.73177" lon="7.25402">
        <ele>301.3</ele>
        <time>2020-05-23T09:27:53Z</time>
      </trkpt>
      <trkpt lat="48.73177" lon="7.25402">
        <ele>301.1</ele>
        <time>2020-05-23T09:27:55Z</time>
      </trkpt>
      <trkpt lat="48.73176" lon="7.25403">
        <ele>301.1</ele>
        <time>2020-05-23T09:27:57Z</time>
      </trkpt>
      <trkpt lat="48.73176" lon="7.25403">
        <ele>301</ele>
        <time>2020-05-23T09:27:59Z</time>
      </trkpt>
      <trkpt lat="48.73176" lon="7.25403">
        <ele>301</ele>
        <time>2020-05-23T09:28:00Z</time>
      </trkpt>
      <trkpt lat="48.73176" lon="7.25403">
        <ele>301</ele>
        <time>2020-05-23T09:28:01Z</time>
      </trkpt>
      <trkpt lat="48.73176" lon="7.25403">
        <ele>300.9</ele>
        <time>2020-05-23T09:28:03Z</time>
      </trkpt>
      <trkpt lat="48.73179" lon="7.254">
        <ele>300.3</ele>
        <time>2020-05-23T09:28:05Z</time>
      </trkpt>
      <trkpt lat="48.73182" lon="7.25396">
        <ele>299.4</ele>
        <time>2020-05-23T09:28:07Z</time>
      </trkpt>
      <trkpt lat="48.73186" lon="7.25391">
        <ele>298.5</ele>
        <time>2020-05-23T09:28:09Z</time>
      </trkpt>
      <trkpt lat="48.73189" lon="7.25386">
        <ele>297.7</ele>
        <time>2020-05-23T09:28:11Z</time>
      </trkpt>
      <trkpt lat="48.73191" lon="7.25382">
        <ele>297.1</ele>
        <time>2020-05-23T09:28:13Z</time>
      </trkpt>
      <trkpt lat="48.73191" lon="7.25378">
        <ele>296.7</ele>
        <time>2020-05-23T09:28:15Z</time>
      </trkpt>
      <trkpt lat="48.73192" lon="7.25377">
        <ele>296.5</ele>
        <time>2020-05-23T09:28:16Z</time>
      </trkpt>
      <trkpt lat="48.73192" lon="7.25374">
        <ele>296.2</ele>
        <time>2020-05-23T09:28:18Z</time>
      </trkpt>
      <trkpt lat="48.73191" lon="7.25373">
        <ele>296.1</ele>
        <time>2020-05-23T09:28:19Z</time>
      </trkpt>
      <trkpt lat="48.73189" lon="7.25374">
        <ele>295.6</ele>
        <time>2020-05-23T09:28:21Z</time>
      </trkpt>
      <trkpt lat="48.73185" lon="7.25376">
        <ele>294.8</ele>
        <time>2020-05-23T09:28:23Z</time>
      </trkpt>
      <trkpt lat="48.73185" lon="7.25376">
        <ele>294.7</ele>
        <time>2020-05-23T09:28:25Z</time>
      </trkpt>
      <trkpt lat="48.73186" lon="7.25375">
        <ele>294.6</ele>
        <time>2020-05-23T09:28:27Z</time>
      </trkpt>
      <trkpt lat="48.73186" lon="7.25376">
        <ele>294.5</ele>
        <time>2020-05-23T09:28:29Z</time>
      </trkpt>
      <trkpt lat="48.73185" lon="7.25377">
        <ele>294.4</ele>
        <time>2020-05-23T09:28:31Z</time>
      </trkpt>
      <trkpt lat="48.73184" lon="7.25377">
        <ele>294.2</ele>
        <time>2020-05-23T09:28:32Z</time>
      </trkpt>
      <trkpt lat="48.73183" lon="7.25378">
        <ele>293.8</ele>
        <time>2020-05-23T09:28:34Z</time>
      </trkpt>
      <trkpt lat="48.73182" lon="7.25379">
        <ele>293.7</ele>
        <time>2020-05-23T09:28:35Z</time>
      </trkpt>
      <trkpt lat="48.73182" lon="7.25378">
        <ele>293.6</ele>
        <time>2020-05-23T09:28:37Z</time>
      </trkpt>
      <trkpt lat="48.73182" lon="7.25378">
        <ele>293.5</ele>
        <time>2020-05-23T09:28:38Z</time>
      </trkpt>
      <trkpt lat="48.73181" lon="7.25378">
        <ele>293.4</ele>
        <time>2020-05-23T09:28:39Z</time>
      </trkpt>
      <trkpt lat="48.73181" lon="7.25378">
        <ele>293.2</ele>
        <time>2020-05-23T09:28:40Z</time>
      </trkpt>
      <trkpt lat="48.7318" lon="7.25377">
        <ele>293</ele>
        <time>2020-05-23T09:28:42Z</time>
      </trkpt>
      <trkpt lat="48.7318" lon="7.25377">
        <ele>292.9</ele>
        <time>2020-05-23T09:28:43Z</time>
      </trkpt>
      <trkpt lat="48.73179" lon="7.25376">
        <ele>292.6</ele>
        <time>2020-05-23T09:28:45Z</time>
      </trkpt>
      <trkpt lat="48.73178" lon="7.25376">
        <ele>292.4</ele>
        <time>2020-05-23T09:28:46Z</time>
      </trkpt>
      <trkpt lat="48.73176" lon="7.25377">
        <ele>291.9</ele>
        <time>2020-05-23T09:28:48Z</time>
      </trkpt>
      <trkpt lat="48.73175" lon="7.25377">
        <ele>291.7</ele>
        <time>2020-05-23T09:28:50Z</time>
      </trkpt>
      <trkpt lat="48.73175" lon="7.25376">
        <ele>291.6</ele>
        <time>2020-05-23T09:28:51Z</time>
      </trkpt>
      <trkpt lat="48.73175" lon="7.25376">
        <ele>291.5</ele>
        <time>2020-05-23T09:28:53Z</time>
      </trkpt>
      <trkpt lat="48.73174" lon="7.25376">
        <ele>291.3</ele>
        <time>2020-05-23T09:28:54Z</time>
      </trkpt>
      <trkpt lat="48.73173" lon="7.25375">
        <ele>291</ele>
        <time>2020-05-23T09:28:55Z</time>
      </trkpt>
      <trkpt lat="48.73172" lon="7.25376">
        <ele>290.7</ele>
        <time>2020-05-23T09:28:56Z</time>
      </trkpt>
      <trkpt lat="48.7317" lon="7.25376">
        <ele>290.2</ele>
        <time>2020-05-23T09:28:57Z</time>
      </trkpt>
      <trkpt lat="48.73169" lon="7.25376">
        <ele>290.1</ele>
        <time>2020-05-23T09:28:58Z</time>
      </trkpt>
      <trkpt lat="48.73169" lon="7.25376">
        <ele>290</ele>
        <time>2020-05-23T09:29:00Z</time>
      </trkpt>
      <trkpt lat="48.73168" lon="7.25376">
        <ele>289.9</ele>
        <time>2020-05-23T09:29:01Z</time>
      </trkpt>
      <trkpt lat="48.73168" lon="7.25376">
        <ele>289.7</ele>
        <time>2020-05-23T09:29:02Z</time>
      </trkpt>
      <trkpt lat="48.73167" lon="7.25375">
        <ele>289.4</ele>
        <time>2020-05-23T09:29:03Z</time>
      </trkpt>
      <trkpt lat="48.73163" lon="7.25373">
        <ele>288.5</ele>
        <time>2020-05-23T09:29:05Z</time>
      </trkpt>
      <trkpt lat="48.73161" lon="7.25372">
        <ele>287.9</ele>
        <time>2020-05-23T09:29:06Z</time>
      </trkpt>
      <trkpt lat="48.7316" lon="7.25373">
        <ele>287.6</ele>
        <time>2020-05-23T09:29:08Z</time>
      </trkpt>
      <trkpt lat="48.73159" lon="7.25374">
        <ele>287.4</ele>
        <time>2020-05-23T09:29:10Z</time>
      </trkpt>
      <trkpt lat="48.73157" lon="7.25374">
        <ele>287</ele>
        <time>2020-05-23T09:29:12Z</time>
      </trkpt>
      <trkpt lat="48.73155" lon="7.25372">
        <ele>286.4</ele>
        <time>2020-05-23T09:29:14Z</time>
      </trkpt>
      <trkpt lat="48.73153" lon="7.25373">
        <ele>286.1</ele>
        <time>2020-05-23T09:29:16Z</time>
      </trkpt>
      <trkpt lat="48.73152" lon="7.25373">
        <ele>285.9</ele>
        <time>2020-05-23T09:29:17Z</time>
      </trkpt>
      <trkpt lat="48.7315" lon="7.25374">
        <ele>285.5</ele>
        <time>2020-05-23T09:29:19Z</time>
      </trkpt>
      <trkpt lat="48.73149" lon="7.25374">
        <ele>285.2</ele>
        <time>2020-05-23T09:29:20Z</time>
      </trkpt>
      <trkpt lat="48.73148" lon="7.25374">
        <ele>285</ele>
        <time>2020-05-23T09:29:21Z</time>
      </trkpt>
      <trkpt lat="48.73147" lon="7.25373">
        <ele>284.7</ele>
        <time>2020-05-23T09:29:22Z</time>
      </trkpt>
      <trkpt lat="48.73144" lon="7.25371">
        <ele>283.9</ele>
        <time>2020-05-23T09:29:24Z</time>
      </trkpt>
      <trkpt lat="48.73143" lon="7.25371">
        <ele>283.8</ele>
        <time>2020-05-23T09:29:26Z</time>
      </trkpt>
      <trkpt lat="48.73142" lon="7.2537">
        <ele>283.5</ele>
        <time>2020-05-23T09:29:27Z</time>
      </trkpt>
      <trkpt lat="48.73142" lon="7.2537">
        <ele>283.4</ele>
        <time>2020-05-23T09:29:29Z</time>
      </trkpt>
      <trkpt lat="48.73142" lon="7.2537">
        <ele>283.3</ele>
        <time>2020-05-23T09:29:30Z</time>
      </trkpt>
      <trkpt lat="48.73141" lon="7.2537">
        <ele>283.2</ele>
        <time>2020-05-23T09:29:31Z</time>
      </trkpt>
      <trkpt lat="48.73139" lon="7.25371">
        <ele>282.9</ele>
        <time>2020-05-23T09:29:33Z</time>
      </trkpt>
      <trkpt lat="48.73138" lon="7.25371">
        <ele>282.5</ele>
        <time>2020-05-23T09:29:35Z</time>
      </trkpt>
      <trkpt lat="48.73137" lon="7.2537">
        <ele>282.3</ele>
        <time>2020-05-23T09:29:37Z</time>
      </trkpt>
      <trkpt lat="48.73136" lon="7.25369">
        <ele>282</ele>
        <time>2020-05-23T09:29:39Z</time>
      </trkpt>
      <trkpt lat="48.73135" lon="7.25366">
        <ele>281.3</ele>
        <time>2020-05-23T09:29:41Z</time>
      </trkpt>
      <trkpt lat="48.73135" lon="7.25365">
        <ele>281.1</ele>
        <time>2020-05-23T09:29:43Z</time>
      </trkpt>
      <trkpt lat="48.73135" lon="7.25364">
        <ele>280.9</ele>
        <time>2020-05-23T09:29:44Z</time>
      </trkpt>
      <trkpt lat="48.73134" lon="7.25364">
        <ele>280.7</ele>
        <time>2020-05-23T09:29:46Z</time>
      </trkpt>
      <trkpt lat="48.73133" lon="7.25363">
        <ele>280.3</ele>
        <time>2020-05-23T09:29:48Z</time>
      </trkpt>
      <trkpt lat="48.73133" lon="7.25363">
        <ele>280.2</ele>
        <time>2020-05-23T09:29:49Z</time>
      </trkpt>
      <trkpt lat="48.73134" lon="7.2536">
        <ele>279.5</ele>
        <time>2020-05-23T09:29:51Z</time>
      </trkpt>
      <trkpt lat="48.73134" lon="7.2536">
        <ele>279.5</ele>
        <time>2020-05-23T09:29:52Z</time>
      </trkpt>
      <trkpt lat="48.73132" lon="7.25359">
        <ele>278.8</ele>
        <time>2020-05-23T09:29:54Z</time>
      </trkpt>
      <trkpt lat="48.7313" lon="7.2536">
        <ele>278.4</ele>
        <time>2020-05-23T09:29:56Z</time>
      </trkpt>
      <trkpt lat="48.73129" lon="7.2536">
        <ele>278.2</ele>
        <time>2020-05-23T09:29:57Z</time>
      </trkpt>
      <trkpt lat="48.73128" lon="7.2536">
        <ele>277.7</ele>
        <time>2020-05-23T09:29:59Z</time>
      </trkpt>
      <trkpt lat="48.73127" lon="7.25361">
        <ele>277.5</ele>
        <time>2020-05-23T09:30:00Z</time>
      </trkpt>
      <trkpt lat="48.73126" lon="7.25361">
        <ele>277.3</ele>
        <time>2020-05-23T09:30:02Z</time>
      </trkpt>
      <trkpt lat="48.73125" lon="7.2536">
        <ele>276.9</ele>
        <time>2020-05-23T09:30:03Z</time>
      </trkpt>
      <trkpt lat="48.7312" lon="7.25356">
        <ele>275.3</ele>
        <time>2020-05-23T09:30:05Z</time>
      </trkpt>
      <trkpt lat="48.73116" lon="7.25355">
        <ele>274.4</ele>
        <time>2020-05-23T09:30:06Z</time>
      </trkpt>
      <trkpt lat="48.73114" lon="7.25355">
        <ele>274</ele>
        <time>2020-05-23T09:30:07Z</time>
      </trkpt>
      <trkpt lat="48.7311" lon="7.25352">
        <ele>272.9</ele>
        <time>2020-05-23T09:30:09Z</time>
      </trkpt>
      <trkpt lat="48.73108" lon="7.2535">
        <ele>272.2</ele>
        <time>2020-05-23T09:30:11Z</time>
      </trkpt>
      <trkpt lat="48.73107" lon="7.2535">
        <ele>272.1</ele>
        <time>2020-05-23T09:30:13Z</time>
      </trkpt>
      <trkpt lat="48.73107" lon="7.25349">
        <ele>272</ele>
        <time>2020-05-23T09:30:14Z</time>
      </trkpt>
      <trkpt lat="48.73107" lon="7.25349">
        <ele>271.9</ele>
        <time>2020-05-23T09:30:15Z</time>
      </trkpt>
      <trkpt lat="48.73105" lon="7.25346">
        <ele>271.2</ele>
        <time>2020-05-23T09:30:16Z</time>
      </trkpt>
      <trkpt lat="48.73102" lon="7.25343">
        <ele>270.5</ele>
        <time>2020-05-23T09:30:18Z</time>
      </trkpt>
      <trkpt lat="48.731" lon="7.25343">
        <ele>270</ele>
        <time>2020-05-23T09:30:20Z</time>
      </trkpt>
      <trkpt lat="48.73097" lon="7.25345">
        <ele>269.2</ele>
        <time>2020-05-23T09:30:22Z</time>
      </trkpt>
      <trkpt lat="48.73097" lon="7.25345">
        <ele>269.1</ele>
        <time>2020-05-23T09:30:23Z</time>
      </trkpt>
      <trkpt lat="48.73095" lon="7.25344">
        <ele>268.5</ele>
        <time>2020-05-23T09:30:25Z</time>
      </trkpt>
      <trkpt lat="48.73093" lon="7.25342">
        <ele>268</ele>
        <time>2020-05-23T09:30:27Z</time>
      </trkpt>
      <trkpt lat="48.73091" lon="7.2534">
        <ele>267.5</ele>
        <time>2020-05-23T09:30:29Z</time>
      </trkpt>
      <trkpt lat="48.73088" lon="7.25338">
        <ele>266.6</ele>
        <time>2020-05-23T09:30:31Z</time>
      </trkpt>
      <trkpt lat="48.73085" lon="7.25338">
        <ele>265.8</ele>
        <time>2020-05-23T09:30:32Z</time>
      </trkpt>
      <trkpt lat="48.73083" lon="7.25337">
        <ele>265.5</ele>
        <time>2020-05-23T09:30:33Z</time>
      </trkpt>
      <trkpt lat="48.7308" lon="7.25336">
        <ele>264.7</ele>
        <time>2020-05-23T09:30:34Z</time>
      </trkpt>
      <trkpt lat="48.73078" lon="7.25334">
        <ele>264</ele>
        <time>2020-05-23T09:30:35Z</time>
      </trkpt>
      <trkpt lat="48.73076" lon="7.25331">
        <ele>261.9</ele>
        <time>2020-05-23T09:30:36Z</time>
      </trkpt>
      <trkpt lat="48.73075" lon="7.25324">
        <ele>261.4</ele>
        <time>2020-05-23T09:30:38Z</time>
      </trkpt>
      <trkpt lat="48.73077" lon="7.25319">
        <ele>260.9</ele>
        <time>2020-05-23T09:30:40Z</time>
      </trkpt>
      <trkpt lat="48.73082" lon="7.25316">
        <ele>260.3</ele>
        <time>2020-05-23T09:30:41Z</time>
      </trkpt>
      <trkpt lat="48.73093" lon="7.25309">
        <ele>258.9</ele>
        <time>2020-05-23T09:30:43Z</time>
      </trkpt>
      <trkpt lat="48.73097" lon="7.25307">
        <ele>258.5</ele>
        <time>2020-05-23T09:30:44Z</time>
      </trkpt>
      <trkpt lat="48.73102" lon="7.25301">
        <ele>257.7</ele>
        <time>2020-05-23T09:30:46Z</time>
      </trkpt>
      <trkpt lat="48.73104" lon="7.25298">
        <ele>257.3</ele>
        <time>2020-05-23T09:30:47Z</time>
      </trkpt>
      <trkpt lat="48.73111" lon="7.2529">
        <ele>256.3</ele>
        <time>2020-05-23T09:30:49Z</time>
      </trkpt>
      <trkpt lat="48.73122" lon="7.25282">
        <ele>254.7</ele>
        <time>2020-05-23T09:30:51Z</time>
      </trkpt>
      <trkpt lat="48.73132" lon="7.25275">
        <ele>253.6</ele>
        <time>2020-05-23T09:30:53Z</time>
      </trkpt>
      <trkpt lat="48.73137" lon="7.25273">
        <ele>253.2</ele>
        <time>2020-05-23T09:30:54Z</time>
      </trkpt>
      <trkpt lat="48.73144" lon="7.25269">
        <ele>252.5</ele>
        <time>2020-05-23T09:30:55Z</time>
      </trkpt>
      <trkpt lat="48.73154" lon="7.25262">
        <ele>251.5</ele>
        <time>2020-05-23T09:30:57Z</time>
      </trkpt>
      <trkpt lat="48.73157" lon="7.25259">
        <ele>251.1</ele>
        <time>2020-05-23T09:30:58Z</time>
      </trkpt>
      <trkpt lat="48.73159" lon="7.25255">
        <ele>250.7</ele>
        <time>2020-05-23T09:30:59Z</time>
      </trkpt>
      <trkpt lat="48.73161" lon="7.25253">
        <ele>250.5</ele>
        <time>2020-05-23T09:31:00Z</time>
      </trkpt>
      <trkpt lat="48.73165" lon="7.25249">
        <ele>249.9</ele>
        <time>2020-05-23T09:31:02Z</time>
      </trkpt>
      <trkpt lat="48.73168" lon="7.25246">
        <ele>249.5</ele>
        <time>2020-05-23T09:31:03Z</time>
      </trkpt>
      <trkpt lat="48.7317" lon="7.25244">
        <ele>249.3</ele>
        <time>2020-05-23T09:31:04Z</time>
      </trkpt>
      <trkpt lat="48.73173" lon="7.2524">
        <ele>248.7</ele>
        <time>2020-05-23T09:31:05Z</time>
      </trkpt>
      <trkpt lat="48.73182" lon="7.25234">
        <ele>247.5</ele>
        <time>2020-05-23T09:31:07Z</time>
      </trkpt>
      <trkpt lat="48.73191" lon="7.25227">
        <ele>246.1</ele>
        <time>2020-05-23T09:31:09Z</time>
      </trkpt>
      <trkpt lat="48.73195" lon="7.25224">
        <ele>245.3</ele>
        <time>2020-05-23T09:31:11Z</time>
      </trkpt>
      <trkpt lat="48.732" lon="7.25222">
        <ele>244.5</ele>
        <time>2020-05-23T09:31:13Z</time>
      </trkpt>
      <trkpt lat="48.73204" lon="7.2522">
        <ele>243.7</ele>
        <time>2020-05-23T09:31:15Z</time>
      </trkpt>
      <trkpt lat="48.73206" lon="7.25217">
        <ele>243</ele>
        <time>2020-05-23T09:31:16Z</time>
      </trkpt>
      <trkpt lat="48.73209" lon="7.25213">
        <ele>242.1</ele>
        <time>2020-05-23T09:31:18Z</time>
      </trkpt>
      <trkpt lat="48.73211" lon="7.25213">
        <ele>241.8</ele>
        <time>2020-05-23T09:31:19Z</time>
      </trkpt>
      <trkpt lat="48.73214" lon="7.2521">
        <ele>240.9</ele>
        <time>2020-05-23T09:31:21Z</time>
      </trkpt>
      <trkpt lat="48.73217" lon="7.25208">
        <ele>240.1</ele>
        <time>2020-05-23T09:31:22Z</time>
      </trkpt>
      <trkpt lat="48.73218" lon="7.25208">
        <ele>239.8</ele>
        <time>2020-05-23T09:31:23Z</time>
      </trkpt>
      <trkpt lat="48.73221" lon="7.25205">
        <ele>238.7</ele>
        <time>2020-05-23T09:31:25Z</time>
      </trkpt>
      <trkpt lat="48.73223" lon="7.25199">
        <ele>237.5</ele>
        <time>2020-05-23T09:31:27Z</time>
      </trkpt>
      <trkpt lat="48.73224" lon="7.25195">
        <ele>237</ele>
        <time>2020-05-23T09:31:28Z</time>
      </trkpt>
      <trkpt lat="48.73224" lon="7.25194">
        <ele>236.8</ele>
        <time>2020-05-23T09:31:29Z</time>
      </trkpt>
      <trkpt lat="48.73224" lon="7.25191">
        <ele>236.4</ele>
        <time>2020-05-23T09:31:30Z</time>
      </trkpt>
      <trkpt lat="48.73225" lon="7.25189">
        <ele>236.1</ele>
        <time>2020-05-23T09:31:32Z</time>
      </trkpt>
      <trkpt lat="48.73225" lon="7.25187">
        <ele>235.8</ele>
        <time>2020-05-23T09:31:33Z</time>
      </trkpt>
      <trkpt lat="48.73226" lon="7.25185">
        <ele>235.4</ele>
        <time>2020-05-23T09:31:34Z</time>
      </trkpt>
      <trkpt lat="48.73228" lon="7.25182">
        <ele>234.8</ele>
        <time>2020-05-23T09:31:36Z</time>
      </trkpt>
      <trkpt lat="48.7323" lon="7.25181">
        <ele>234.4</ele>
        <time>2020-05-23T09:31:37Z</time>
      </trkpt>
      <trkpt lat="48.73234" lon="7.25181">
        <ele>233.6</ele>
        <time>2020-05-23T09:31:39Z</time>
      </trkpt>
      <trkpt lat="48.73239" lon="7.25179">
        <ele>232.4</ele>
        <time>2020-05-23T09:31:41Z</time>
      </trkpt>
      <trkpt lat="48.7324" lon="7.25179">
        <ele>232.2</ele>
        <time>2020-05-23T09:31:42Z</time>
      </trkpt>
      <trkpt lat="48.7324" lon="7.25178">
        <ele>231.9</ele>
        <time>2020-05-23T09:31:43Z</time>
      </trkpt>
      <trkpt lat="48.73242" lon="7.25175">
        <ele>231.4</ele>
        <time>2020-05-23T09:31:45Z</time>
      </trkpt>
      <trkpt lat="48.73242" lon="7.25174">
        <ele>231.3</ele>
        <time>2020-05-23T09:31:47Z</time>
      </trkpt>
      <trkpt lat="48.73242" lon="7.25175">
        <ele>231.2</ele>
        <time>2020-05-23T09:31:48Z</time>
      </trkpt>
      <trkpt lat="48.73244" lon="7.25175">
        <ele>230.8</ele>
        <time>2020-05-23T09:31:50Z</time>
      </trkpt>
      <trkpt lat="48.73244" lon="7.25174">
        <ele>230.7</ele>
        <time>2020-05-23T09:31:52Z</time>
      </trkpt>
      <trkpt lat="48.73244" lon="7.25173">
        <ele>230.5</ele>
        <time>2020-05-23T09:31:54Z</time>
      </trkpt>
      <trkpt lat="48.73246" lon="7.25173">
        <ele>230</ele>
        <time>2020-05-23T09:31:56Z</time>
      </trkpt>
      <trkpt lat="48.73246" lon="7.25173">
        <ele>229.8</ele>
        <time>2020-05-23T09:31:58Z</time>
      </trkpt>
      <trkpt lat="48.73247" lon="7.25172">
        <ele>229.7</ele>
        <time>2020-05-23T09:31:59Z</time>
      </trkpt>
      <trkpt lat="48.73248" lon="7.2517">
        <ele>229.3</ele>
        <time>2020-05-23T09:32:01Z</time>
      </trkpt>
      <trkpt lat="48.73248" lon="7.25169">
        <ele>229.1</ele>
        <time>2020-05-23T09:32:02Z</time>
      </trkpt>
      <trkpt lat="48.73249" lon="7.25167">
        <ele>228.7</ele>
        <time>2020-05-23T09:32:04Z</time>
      </trkpt>
      <trkpt lat="48.7325" lon="7.25167">
        <ele>228.5</ele>
        <time>2020-05-23T09:32:05Z</time>
      </trkpt>
      <trkpt lat="48.7325" lon="7.25166">
        <ele>228.4</ele>
        <time>2020-05-23T09:32:06Z</time>
      </trkpt>
      <trkpt lat="48.73251" lon="7.25165">
        <ele>228.2</ele>
        <time>2020-05-23T09:32:08Z</time>
      </trkpt>
      <trkpt lat="48.73252" lon="7.25164">
        <ele>227.9</ele>
        <time>2020-05-23T09:32:09Z</time>
      </trkpt>
      <trkpt lat="48.73254" lon="7.25162">
        <ele>227.2</ele>
        <time>2020-05-23T09:32:11Z</time>
      </trkpt>
      <trkpt lat="48.73254" lon="7.25162">
        <ele>227.1</ele>
        <time>2020-05-23T09:32:13Z</time>
      </trkpt>
      <trkpt lat="48.73255" lon="7.25162">
        <ele>226.9</ele>
        <time>2020-05-23T09:32:14Z</time>
      </trkpt>
      <trkpt lat="48.73256" lon="7.25162">
        <ele>226.7</ele>
        <time>2020-05-23T09:32:15Z</time>
      </trkpt>
      <trkpt lat="48.73259" lon="7.25159">
        <ele>225.9</ele>
        <time>2020-05-23T09:32:17Z</time>
      </trkpt>
      <trkpt lat="48.73259" lon="7.25157">
        <ele>225.6</ele>
        <time>2020-05-23T09:32:18Z</time>
      </trkpt>
      <trkpt lat="48.73261" lon="7.25156">
        <ele>225.3</ele>
        <time>2020-05-23T09:32:20Z</time>
      </trkpt>
      <trkpt lat="48.73261" lon="7.25156">
        <ele>225.1</ele>
        <time>2020-05-23T09:32:21Z</time>
      </trkpt>
      <trkpt lat="48.73263" lon="7.25155">
        <ele>224.7</ele>
        <time>2020-05-23T09:32:23Z</time>
      </trkpt>
      <trkpt lat="48.73264" lon="7.25155">
        <ele>224.5</ele>
        <time>2020-05-23T09:32:24Z</time>
      </trkpt>
      <trkpt lat="48.73265" lon="7.25153">
        <ele>224.1</ele>
        <time>2020-05-23T09:32:26Z</time>
      </trkpt>
      <trkpt lat="48.73266" lon="7.25151">
        <ele>223.7</ele>
        <time>2020-05-23T09:32:28Z</time>
      </trkpt>
      <trkpt lat="48.73266" lon="7.2515">
        <ele>223.5</ele>
        <time>2020-05-23T09:32:29Z</time>
      </trkpt>
      <trkpt lat="48.73268" lon="7.25146">
        <ele>222.7</ele>
        <time>2020-05-23T09:32:31Z</time>
      </trkpt>
      <trkpt lat="48.73268" lon="7.25145">
        <ele>222.6</ele>
        <time>2020-05-23T09:32:32Z</time>
      </trkpt>
      <trkpt lat="48.73269" lon="7.25144">
        <ele>222.3</ele>
        <time>2020-05-23T09:32:34Z</time>
      </trkpt>
      <trkpt lat="48.73268" lon="7.25143">
        <ele>222.2</ele>
        <time>2020-05-23T09:32:36Z</time>
      </trkpt>
      <trkpt lat="48.73268" lon="7.25143">
        <ele>222.1</ele>
        <time>2020-05-23T09:32:37Z</time>
      </trkpt>
      <trkpt lat="48.73268" lon="7.25144">
        <ele>221.9</ele>
        <time>2020-05-23T09:32:38Z</time>
      </trkpt>
      <trkpt lat="48.73267" lon="7.25144">
        <ele>221.9</ele>
        <time>2020-05-23T09:32:39Z</time>
      </trkpt>
      <trkpt lat="48.73267" lon="7.25144">
        <ele>221.9</ele>
        <time>2020-05-23T09:32:40Z</time>
      </trkpt>
      <trkpt lat="48.73267" lon="7.25143">
        <ele>221.7</ele>
        <time>2020-05-23T09:32:42Z</time>
      </trkpt>
      <trkpt lat="48.73267" lon="7.25143">
        <ele>221.6</ele>
        <time>2020-05-23T09:32:44Z</time>
      </trkpt>
      <trkpt lat="48.73268" lon="7.25142">
        <ele>221.4</ele>
        <time>2020-05-23T09:32:45Z</time>
      </trkpt>
      <trkpt lat="48.73272" lon="7.25139">
        <ele>220.4</ele>
        <time>2020-05-23T09:32:47Z</time>
      </trkpt>
      <trkpt lat="48.73274" lon="7.25137">
        <ele>219.4</ele>
        <time>2020-05-23T09:32:48Z</time>
      </trkpt>
      <trkpt lat="48.73278" lon="7.25133">
        <ele>218.7</ele>
        <time>2020-05-23T09:32:49Z</time>
      </trkpt>
      <trkpt lat="48.73282" lon="7.2513">
        <ele>218</ele>
        <time>2020-05-23T09:32:50Z</time>
      </trkpt>
      <trkpt lat="48.73286" lon="7.25127">
        <ele>217</ele>
        <time>2020-05-23T09:32:51Z</time>
      </trkpt>
      <trkpt lat="48.73292" lon="7.25122">
        <ele>216.9</ele>
        <time>2020-05-23T09:32:53Z</time>
      </trkpt>
      <trkpt lat="48.73299" lon="7.25118">
        <ele>216.7</ele>
        <time>2020-05-23T09:32:55Z</time>
      </trkpt>
      <trkpt lat="48.73307" lon="7.25114">
        <ele>216.5</ele>
        <time>2020-05-23T09:32:57Z</time>
      </trkpt>
      <trkpt lat="48.73311" lon="7.25112">
        <ele>216.3</ele>
        <time>2020-05-23T09:32:58Z</time>
      </trkpt>
      <trkpt lat="48.73316" lon="7.2511">
        <ele>216.2</ele>
        <time>2020-05-23T09:32:59Z</time>
      </trkpt>
      <trkpt lat="48.7332" lon="7.25108">
        <ele>216.1</ele>
        <time>2020-05-23T09:33:00Z</time>
      </trkpt>
      <trkpt lat="48.73325" lon="7.25105">
        <ele>216</ele>
        <time>2020-05-23T09:33:01Z</time>
      </trkpt>
      <trkpt lat="48.73335" lon="7.25097">
        <ele>215.7</ele>
        <time>2020-05-23T09:33:03Z</time>
      </trkpt>
      <trkpt lat="48.73347" lon="7.2509">
        <ele>215.3</ele>
        <time>2020-05-23T09:33:05Z</time>
      </trkpt>
      <trkpt lat="48.73359" lon="7.25087">
        <ele>215</ele>
        <time>2020-05-23T09:33:07Z</time>
      </trkpt>
      <trkpt lat="48.73372" lon="7.25087">
        <ele>214.7</ele>
        <time>2020-05-23T09:33:09Z</time>
      </trkpt>
      <trkpt lat="48.73384" lon="7.2509">
        <ele>214.6</ele>
        <time>2020-05-23T09:33:11Z</time>
      </trkpt>
      <trkpt lat="48.73394" lon="7.25093">
        <ele>214.5</ele>
        <time>2020-05-23T09:33:13Z</time>
      </trkpt>
      <trkpt lat="48.73399" lon="7.25097">
        <ele>214.5</ele>
        <time>2020-05-23T09:33:14Z</time>
      </trkpt>
      <trkpt lat="48.73409" lon="7.25106">
        <ele>214.6</ele>
        <time>2020-05-23T09:33:16Z</time>
      </trkpt>
      <trkpt lat="48.73413" lon="7.25113">
        <ele>214.7</ele>
        <time>2020-05-23T09:33:17Z</time>
      </trkpt>
      <trkpt lat="48.73419" lon="7.25126">
        <ele>215</ele>
        <time>2020-05-23T09:33:19Z</time>
      </trkpt>
      <trkpt lat="48.73426" lon="7.25138">
        <ele>215.3</ele>
        <time>2020-05-23T09:33:21Z</time>
      </trkpt>
      <trkpt lat="48.73429" lon="7.25144">
        <ele>215.5</ele>
        <time>2020-05-23T09:33:22Z</time>
      </trkpt>
      <trkpt lat="48.73434" lon="7.25156">
        <ele>215.9</ele>
        <time>2020-05-23T09:33:24Z</time>
      </trkpt>
      <trkpt lat="48.73439" lon="7.25164">
        <ele>216.1</ele>
        <time>2020-05-23T09:33:26Z</time>
      </trkpt>
      <trkpt lat="48.73442" lon="7.25165">
        <ele>216.2</ele>
        <time>2020-05-23T09:33:27Z</time>
      </trkpt>
      <trkpt lat="48.7345" lon="7.25163">
        <ele>216.5</ele>
        <time>2020-05-23T09:33:29Z</time>
      </trkpt>
      <trkpt lat="48.73458" lon="7.25155">
        <ele>216.5</ele>
        <time>2020-05-23T09:33:31Z</time>
      </trkpt>
      <trkpt lat="48.73462" lon="7.25153">
        <ele>216.5</ele>
        <time>2020-05-23T09:33:32Z</time>
      </trkpt>
      <trkpt lat="48.73465" lon="7.25149">
        <ele>216.6</ele>
        <time>2020-05-23T09:33:33Z</time>
      </trkpt>
      <trkpt lat="48.73469" lon="7.25146">
        <ele>216.7</ele>
        <time>2020-05-23T09:33:34Z</time>
      </trkpt>
      <trkpt lat="48.73476" lon="7.25139">
        <ele>216.9</ele>
        <time>2020-05-23T09:33:36Z</time>
      </trkpt>
      <trkpt lat="48.73479" lon="7.25135">
        <ele>217</ele>
        <time>2020-05-23T09:33:37Z</time>
      </trkpt>
      <trkpt lat="48.73483" lon="7.25132">
        <ele>217.1</ele>
        <time>2020-05-23T09:33:38Z</time>
      </trkpt>
      <trkpt lat="48.7349" lon="7.25126">
        <ele>217.3</ele>
        <time>2020-05-23T09:33:40Z</time>
      </trkpt>
      <trkpt lat="48.73496" lon="7.25119">
        <ele>218.1</ele>
        <time>2020-05-23T09:33:42Z</time>
      </trkpt>
      <trkpt lat="48.73502" lon="7.25112">
        <ele>218.3</ele>
        <time>2020-05-23T09:33:44Z</time>
      </trkpt>
      <trkpt lat="48.73504" lon="7.25109">
        <ele>218.4</ele>
        <time>2020-05-23T09:33:45Z</time>
      </trkpt>
      <trkpt lat="48.73507" lon="7.25106">
        <ele>218.7</ele>
        <time>2020-05-23T09:33:46Z</time>
      </trkpt>
      <trkpt lat="48.73512" lon="7.25102">
        <ele>218.8</ele>
        <time>2020-05-23T09:33:48Z</time>
      </trkpt>
      <trkpt lat="48.73514" lon="7.25099">
        <ele>218.9</ele>
        <time>2020-05-23T09:33:49Z</time>
      </trkpt>
      <trkpt lat="48.73519" lon="7.25095">
        <ele>219</ele>
        <time>2020-05-23T09:33:51Z</time>
      </trkpt>
      <trkpt lat="48.73523" lon="7.25095">
        <ele>219</ele>
        <time>2020-05-23T09:33:53Z</time>
      </trkpt>
      <trkpt lat="48.73525" lon="7.25097">
        <ele>219</ele>
        <time>2020-05-23T09:33:54Z</time>
      </trkpt>
      <trkpt lat="48.73527" lon="7.25103">
        <ele>218.9</ele>
        <time>2020-05-23T09:33:56Z</time>
      </trkpt>
    </trkseg>
  </trk>
</gpx>